<?xml version="1.0" encoding="UTF-8" standalone="no" ?>
<gpx xmlns="http://www.topografix.com/GPX/1/1" xmlns:xsi="http://www.w3.org/2001/XMLSchema-instance" xsi:schemaLocation="http://www.topografix.com/GPX/1/1 http://www.topografix.com/GPX/1/1/gpx.xsd" version="1.1" creator="VisuGPX - https://www.visugpx.com">
  <metadata>
    <name>APEPS 10 KMS</name>
    <desc><![CDATA[très belle marche région de Soignies ]]></desc>
  </metadata>
  <trk>
    <name><![CDATA[2016-11-06 11:05:57]]></name>
    <trkseg>
      <trkpt lat="50.50387" lon="4.11138">
        <ele>136.16</ele>
        <time>2016-11-06T08:14:04Z</time>
      </trkpt>
      <trkpt lat="50.50386" lon="4.11143">
        <ele>135.68</ele>
        <time>2016-11-06T08:14:14Z</time>
      </trkpt>
      <trkpt lat="50.50383" lon="4.11149">
        <ele>135.68</ele>
        <time>2016-11-06T08:14:19Z</time>
      </trkpt>
      <trkpt lat="50.50376" lon="4.11151">
        <ele>135.68</ele>
        <time>2016-11-06T08:14:25Z</time>
      </trkpt>
      <trkpt lat="50.50368" lon="4.11136">
        <ele>135.2</ele>
        <time>2016-11-06T08:14:40Z</time>
      </trkpt>
      <trkpt lat="50.50367" lon="4.11131">
        <ele>135.2</ele>
        <time>2016-11-06T08:14:43Z</time>
      </trkpt>
      <trkpt lat="50.50367" lon="4.11122">
        <ele>134.72</ele>
        <time>2016-11-06T08:14:47Z</time>
      </trkpt>
      <trkpt lat="50.5037" lon="4.11102">
        <ele>134.72</ele>
        <time>2016-11-06T08:14:58Z</time>
      </trkpt>
      <trkpt lat="50.50373" lon="4.11093">
        <ele>134.72</ele>
        <time>2016-11-06T08:15:04Z</time>
      </trkpt>
      <trkpt lat="50.50375" lon="4.11072">
        <ele>134.24</ele>
        <time>2016-11-06T08:15:14Z</time>
      </trkpt>
      <trkpt lat="50.50377" lon="4.11051">
        <ele>133.76</ele>
        <time>2016-11-06T08:15:30Z</time>
      </trkpt>
      <trkpt lat="50.50388" lon="4.11043">
        <ele>133.76</ele>
        <time>2016-11-06T08:15:42Z</time>
      </trkpt>
      <trkpt lat="50.50397" lon="4.11028">
        <ele>135.2</ele>
        <time>2016-11-06T08:15:57Z</time>
      </trkpt>
      <trkpt lat="50.50397" lon="4.11028">
        <ele>135.2</ele>
        <time>2016-11-06T08:15:58Z</time>
      </trkpt>
      <trkpt lat="50.50415" lon="4.11019">
        <ele>135.68</ele>
        <time>2016-11-06T08:16:15Z</time>
      </trkpt>
      <trkpt lat="50.50431" lon="4.11004">
        <ele>136.64</ele>
        <time>2016-11-06T08:16:29Z</time>
      </trkpt>
      <trkpt lat="50.50432" lon="4.11003">
        <ele>136.64</ele>
        <time>2016-11-06T08:16:30Z</time>
      </trkpt>
      <trkpt lat="50.5044" lon="4.10994">
        <ele>137.13</ele>
        <time>2016-11-06T08:16:37Z</time>
      </trkpt>
      <trkpt lat="50.50444" lon="4.10949">
        <ele>137.13</ele>
        <time>2016-11-06T08:16:54Z</time>
      </trkpt>
      <trkpt lat="50.50434" lon="4.10915">
        <ele>135.68</ele>
        <time>2016-11-06T08:17:12Z</time>
      </trkpt>
      <trkpt lat="50.5043" lon="4.10903">
        <ele>135.2</ele>
        <time>2016-11-06T08:17:19Z</time>
      </trkpt>
      <trkpt lat="50.50418" lon="4.10867">
        <ele>133.76</ele>
        <time>2016-11-06T08:17:38Z</time>
      </trkpt>
      <trkpt lat="50.50405" lon="4.10843">
        <ele>132.32</ele>
        <time>2016-11-06T08:17:53Z</time>
      </trkpt>
      <trkpt lat="50.5039" lon="4.10816">
        <ele>130.88</ele>
        <time>2016-11-06T08:18:09Z</time>
      </trkpt>
      <trkpt lat="50.50388" lon="4.10806">
        <ele>130.4</ele>
        <time>2016-11-06T08:18:15Z</time>
      </trkpt>
      <trkpt lat="50.50382" lon="4.108">
        <ele>129.92</ele>
        <time>2016-11-06T08:18:20Z</time>
      </trkpt>
      <trkpt lat="50.50371" lon="4.10803">
        <ele>128.95</ele>
        <time>2016-11-06T08:18:25Z</time>
      </trkpt>
      <trkpt lat="50.50367" lon="4.10805">
        <ele>128.95</ele>
        <time>2016-11-06T08:18:27Z</time>
      </trkpt>
      <trkpt lat="50.50347" lon="4.10804">
        <ele>127.51</ele>
        <time>2016-11-06T08:18:44Z</time>
      </trkpt>
      <trkpt lat="50.50329" lon="4.10782">
        <ele>126.07</ele>
        <time>2016-11-06T08:19:01Z</time>
      </trkpt>
      <trkpt lat="50.50329" lon="4.10781">
        <ele>126.07</ele>
        <time>2016-11-06T08:19:02Z</time>
      </trkpt>
      <trkpt lat="50.503" lon="4.1076">
        <ele>124.15</ele>
        <time>2016-11-06T08:19:24Z</time>
      </trkpt>
      <trkpt lat="50.50279" lon="4.10755">
        <ele>124.15</ele>
        <time>2016-11-06T08:19:40Z</time>
      </trkpt>
      <trkpt lat="50.50273" lon="4.10753">
        <ele>124.15</ele>
        <time>2016-11-06T08:19:47Z</time>
      </trkpt>
      <trkpt lat="50.50272" lon="4.1075">
        <ele>124.15</ele>
        <time>2016-11-06T08:19:50Z</time>
      </trkpt>
      <trkpt lat="50.50255" lon="4.10724">
        <ele>123.19</ele>
        <time>2016-11-06T08:20:08Z</time>
      </trkpt>
      <trkpt lat="50.50247" lon="4.10711">
        <ele>123.19</ele>
        <time>2016-11-06T08:20:17Z</time>
      </trkpt>
      <trkpt lat="50.50245" lon="4.10702">
        <ele>122.71</ele>
        <time>2016-11-06T08:20:21Z</time>
      </trkpt>
      <trkpt lat="50.5025" lon="4.1066">
        <ele>122.22</ele>
        <time>2016-11-06T08:20:41Z</time>
      </trkpt>
      <trkpt lat="50.5026" lon="4.10622">
        <ele>122.22</ele>
        <time>2016-11-06T08:21:01Z</time>
      </trkpt>
      <trkpt lat="50.50269" lon="4.10578">
        <ele>121.74</ele>
        <time>2016-11-06T08:21:24Z</time>
      </trkpt>
      <trkpt lat="50.50275" lon="4.10542">
        <ele>123.19</ele>
        <time>2016-11-06T08:21:38Z</time>
      </trkpt>
      <trkpt lat="50.50278" lon="4.10504">
        <ele>123.19</ele>
        <time>2016-11-06T08:21:56Z</time>
      </trkpt>
      <trkpt lat="50.50285" lon="4.10463">
        <ele>123.67</ele>
        <time>2016-11-06T08:22:18Z</time>
      </trkpt>
      <trkpt lat="50.50293" lon="4.10424">
        <ele>123.67</ele>
        <time>2016-11-06T08:22:38Z</time>
      </trkpt>
      <trkpt lat="50.50298" lon="4.10384">
        <ele>124.15</ele>
        <time>2016-11-06T08:22:56Z</time>
      </trkpt>
      <trkpt lat="50.5031" lon="4.10346">
        <ele>124.63</ele>
        <time>2016-11-06T08:23:15Z</time>
      </trkpt>
      <trkpt lat="50.50325" lon="4.10309">
        <ele>125.59</ele>
        <time>2016-11-06T08:23:36Z</time>
      </trkpt>
      <trkpt lat="50.50339" lon="4.10272">
        <ele>125.59</ele>
        <time>2016-11-06T08:23:57Z</time>
      </trkpt>
      <trkpt lat="50.5036" lon="4.10229">
        <ele>126.55</ele>
        <time>2016-11-06T08:24:21Z</time>
      </trkpt>
      <trkpt lat="50.50374" lon="4.10196">
        <ele>126.55</ele>
        <time>2016-11-06T08:24:40Z</time>
      </trkpt>
      <trkpt lat="50.50388" lon="4.10164">
        <ele>127.03</ele>
        <time>2016-11-06T08:24:59Z</time>
      </trkpt>
      <trkpt lat="50.50399" lon="4.1012">
        <ele>127.99</ele>
        <time>2016-11-06T08:25:21Z</time>
      </trkpt>
      <trkpt lat="50.50404" lon="4.10079">
        <ele>128.95</ele>
        <time>2016-11-06T08:25:39Z</time>
      </trkpt>
      <trkpt lat="50.50404" lon="4.10069">
        <ele>128.47</ele>
        <time>2016-11-06T08:25:44Z</time>
      </trkpt>
      <trkpt lat="50.50404" lon="4.10062">
        <ele>128.47</ele>
        <time>2016-11-06T08:25:48Z</time>
      </trkpt>
      <trkpt lat="50.50413" lon="4.10018">
        <ele>128.47</ele>
        <time>2016-11-06T08:26:09Z</time>
      </trkpt>
      <trkpt lat="50.50437" lon="4.10003">
        <ele>129.43</ele>
        <time>2016-11-06T08:26:30Z</time>
      </trkpt>
      <trkpt lat="50.50465" lon="4.09984">
        <ele>129.92</ele>
        <time>2016-11-06T08:26:51Z</time>
      </trkpt>
      <trkpt lat="50.50485" lon="4.09968">
        <ele>129.92</ele>
        <time>2016-11-06T08:27:11Z</time>
      </trkpt>
      <trkpt lat="50.50511" lon="4.09949">
        <ele>129.92</ele>
        <time>2016-11-06T08:27:30Z</time>
      </trkpt>
      <trkpt lat="50.50533" lon="4.09932">
        <ele>130.88</ele>
        <time>2016-11-06T08:27:46Z</time>
      </trkpt>
      <trkpt lat="50.50554" lon="4.09917">
        <ele>130.88</ele>
        <time>2016-11-06T08:28:04Z</time>
      </trkpt>
      <trkpt lat="50.50576" lon="4.09901">
        <ele>131.84</ele>
        <time>2016-11-06T08:28:23Z</time>
      </trkpt>
      <trkpt lat="50.50594" lon="4.09883">
        <ele>132.8</ele>
        <time>2016-11-06T08:28:40Z</time>
      </trkpt>
      <trkpt lat="50.50616" lon="4.09866">
        <ele>133.28</ele>
        <time>2016-11-06T08:28:58Z</time>
      </trkpt>
      <trkpt lat="50.50628" lon="4.09851">
        <ele>133.28</ele>
        <time>2016-11-06T08:29:08Z</time>
      </trkpt>
      <trkpt lat="50.50633" lon="4.09845">
        <ele>133.76</ele>
        <time>2016-11-06T08:29:12Z</time>
      </trkpt>
      <trkpt lat="50.50648" lon="4.09814">
        <ele>135.2</ele>
        <time>2016-11-06T08:29:29Z</time>
      </trkpt>
      <trkpt lat="50.5066" lon="4.09777">
        <ele>135.68</ele>
        <time>2016-11-06T08:29:47Z</time>
      </trkpt>
      <trkpt lat="50.50663" lon="4.09772">
        <ele>135.68</ele>
        <time>2016-11-06T08:29:53Z</time>
      </trkpt>
      <trkpt lat="50.50683" lon="4.09781">
        <ele>136.16</ele>
        <time>2016-11-06T08:30:09Z</time>
      </trkpt>
      <trkpt lat="50.50707" lon="4.09802">
        <ele>137.61</ele>
        <time>2016-11-06T08:30:30Z</time>
      </trkpt>
      <trkpt lat="50.50735" lon="4.09808">
        <ele>138.57</ele>
        <time>2016-11-06T08:30:51Z</time>
      </trkpt>
      <trkpt lat="50.50737" lon="4.09809">
        <ele>138.57</ele>
        <time>2016-11-06T08:30:52Z</time>
      </trkpt>
      <trkpt lat="50.50759" lon="4.09809">
        <ele>140.01</ele>
        <time>2016-11-06T08:31:10Z</time>
      </trkpt>
      <trkpt lat="50.50786" lon="4.098">
        <ele>141.45</ele>
        <time>2016-11-06T08:31:28Z</time>
      </trkpt>
      <trkpt lat="50.50813" lon="4.09794">
        <ele>142.89</ele>
        <time>2016-11-06T08:31:49Z</time>
      </trkpt>
      <trkpt lat="50.50837" lon="4.09787">
        <ele>146.26</ele>
        <time>2016-11-06T08:32:08Z</time>
      </trkpt>
      <trkpt lat="50.50858" lon="4.09791">
        <ele>148.18</ele>
        <time>2016-11-06T08:32:23Z</time>
      </trkpt>
      <trkpt lat="50.50879" lon="4.0979">
        <ele>149.62</ele>
        <time>2016-11-06T08:32:40Z</time>
      </trkpt>
      <trkpt lat="50.50908" lon="4.09799">
        <ele>150.58</ele>
        <time>2016-11-06T08:33:00Z</time>
      </trkpt>
      <trkpt lat="50.50931" lon="4.0981">
        <ele>151.06</ele>
        <time>2016-11-06T08:33:17Z</time>
      </trkpt>
      <trkpt lat="50.50953" lon="4.09819">
        <ele>152.51</ele>
        <time>2016-11-06T08:33:33Z</time>
      </trkpt>
      <trkpt lat="50.50976" lon="4.09829">
        <ele>153.47</ele>
        <time>2016-11-06T08:33:50Z</time>
      </trkpt>
      <trkpt lat="50.51002" lon="4.09843">
        <ele>153.95</ele>
        <time>2016-11-06T08:34:10Z</time>
      </trkpt>
      <trkpt lat="50.51026" lon="4.09855">
        <ele>154.91</ele>
        <time>2016-11-06T08:34:30Z</time>
      </trkpt>
      <trkpt lat="50.51048" lon="4.09868">
        <ele>155.87</ele>
        <time>2016-11-06T08:34:48Z</time>
      </trkpt>
      <trkpt lat="50.51079" lon="4.09885">
        <ele>155.39</ele>
        <time>2016-11-06T08:35:10Z</time>
      </trkpt>
      <trkpt lat="50.51103" lon="4.09901">
        <ele>155.39</ele>
        <time>2016-11-06T08:35:30Z</time>
      </trkpt>
      <trkpt lat="50.51123" lon="4.09916">
        <ele>155.39</ele>
        <time>2016-11-06T08:35:48Z</time>
      </trkpt>
      <trkpt lat="50.51128" lon="4.09922">
        <ele>155.39</ele>
        <time>2016-11-06T08:35:52Z</time>
      </trkpt>
      <trkpt lat="50.51146" lon="4.09942">
        <ele>153.95</ele>
        <time>2016-11-06T08:36:07Z</time>
      </trkpt>
      <trkpt lat="50.51162" lon="4.09972">
        <ele>154.91</ele>
        <time>2016-11-06T08:36:24Z</time>
      </trkpt>
      <trkpt lat="50.51179" lon="4.10001">
        <ele>155.87</ele>
        <time>2016-11-06T08:36:41Z</time>
      </trkpt>
      <trkpt lat="50.51201" lon="4.10031">
        <ele>155.87</ele>
        <time>2016-11-06T08:37:02Z</time>
      </trkpt>
      <trkpt lat="50.51218" lon="4.10055">
        <ele>154.43</ele>
        <time>2016-11-06T08:37:19Z</time>
      </trkpt>
      <trkpt lat="50.51231" lon="4.10083">
        <ele>153.47</ele>
        <time>2016-11-06T08:37:39Z</time>
      </trkpt>
      <trkpt lat="50.5123" lon="4.10086">
        <ele>153.47</ele>
        <time>2016-11-06T08:37:41Z</time>
      </trkpt>
      <trkpt lat="50.51216" lon="4.1012">
        <ele>152.51</ele>
        <time>2016-11-06T08:38:00Z</time>
      </trkpt>
      <trkpt lat="50.51202" lon="4.10145">
        <ele>151.54</ele>
        <time>2016-11-06T08:38:16Z</time>
      </trkpt>
      <trkpt lat="50.51184" lon="4.1018">
        <ele>150.1</ele>
        <time>2016-11-06T08:38:35Z</time>
      </trkpt>
      <trkpt lat="50.5117" lon="4.10208">
        <ele>148.18</ele>
        <time>2016-11-06T08:38:52Z</time>
      </trkpt>
      <trkpt lat="50.51149" lon="4.10251">
        <ele>147.22</ele>
        <time>2016-11-06T08:39:15Z</time>
      </trkpt>
      <trkpt lat="50.5113" lon="4.10288">
        <ele>145.78</ele>
        <time>2016-11-06T08:39:36Z</time>
      </trkpt>
      <trkpt lat="50.51119" lon="4.10313">
        <ele>145.3</ele>
        <time>2016-11-06T08:39:50Z</time>
      </trkpt>
      <trkpt lat="50.5111" lon="4.10353">
        <ele>144.34</ele>
        <time>2016-11-06T08:40:09Z</time>
      </trkpt>
      <trkpt lat="50.51095" lon="4.10382">
        <ele>142.89</ele>
        <time>2016-11-06T08:40:26Z</time>
      </trkpt>
      <trkpt lat="50.51076" lon="4.10417">
        <ele>142.41</ele>
        <time>2016-11-06T08:40:45Z</time>
      </trkpt>
      <trkpt lat="50.51056" lon="4.10457">
        <ele>140.97</ele>
        <time>2016-11-06T08:41:07Z</time>
      </trkpt>
      <trkpt lat="50.5104" lon="4.10491">
        <ele>140.01</ele>
        <time>2016-11-06T08:41:26Z</time>
      </trkpt>
      <trkpt lat="50.51023" lon="4.10522">
        <ele>139.53</ele>
        <time>2016-11-06T08:41:43Z</time>
      </trkpt>
      <trkpt lat="50.51006" lon="4.10557">
        <ele>139.53</ele>
        <time>2016-11-06T08:42:04Z</time>
      </trkpt>
      <trkpt lat="50.50994" lon="4.10586">
        <ele>138.57</ele>
        <time>2016-11-06T08:42:21Z</time>
      </trkpt>
      <trkpt lat="50.50978" lon="4.10622">
        <ele>138.09</ele>
        <time>2016-11-06T08:42:40Z</time>
      </trkpt>
      <trkpt lat="50.50961" lon="4.10647">
        <ele>137.13</ele>
        <time>2016-11-06T08:42:56Z</time>
      </trkpt>
      <trkpt lat="50.50939" lon="4.10683">
        <ele>137.13</ele>
        <time>2016-11-06T08:43:17Z</time>
      </trkpt>
      <trkpt lat="50.50925" lon="4.10717">
        <ele>137.13</ele>
        <time>2016-11-06T08:43:35Z</time>
      </trkpt>
      <trkpt lat="50.50918" lon="4.10735">
        <ele>136.64</ele>
        <time>2016-11-06T08:43:46Z</time>
      </trkpt>
      <trkpt lat="50.50923" lon="4.10741">
        <ele>136.64</ele>
        <time>2016-11-06T08:43:50Z</time>
      </trkpt>
      <trkpt lat="50.5095" lon="4.10744">
        <ele>136.16</ele>
        <time>2016-11-06T08:44:08Z</time>
      </trkpt>
      <trkpt lat="50.5098" lon="4.10746">
        <ele>135.68</ele>
        <time>2016-11-06T08:44:31Z</time>
      </trkpt>
      <trkpt lat="50.51007" lon="4.10744">
        <ele>135.2</ele>
        <time>2016-11-06T08:44:50Z</time>
      </trkpt>
      <trkpt lat="50.51039" lon="4.10743">
        <ele>134.72</ele>
        <time>2016-11-06T08:45:13Z</time>
      </trkpt>
      <trkpt lat="50.51066" lon="4.10742">
        <ele>134.72</ele>
        <time>2016-11-06T08:45:33Z</time>
      </trkpt>
      <trkpt lat="50.51094" lon="4.10737">
        <ele>134.72</ele>
        <time>2016-11-06T08:45:52Z</time>
      </trkpt>
      <trkpt lat="50.51121" lon="4.10735">
        <ele>134.24</ele>
        <time>2016-11-06T08:46:11Z</time>
      </trkpt>
      <trkpt lat="50.5115" lon="4.10735">
        <ele>135.68</ele>
        <time>2016-11-06T08:46:32Z</time>
      </trkpt>
      <trkpt lat="50.51177" lon="4.10736">
        <ele>136.16</ele>
        <time>2016-11-06T08:46:51Z</time>
      </trkpt>
      <trkpt lat="50.51199" lon="4.10736">
        <ele>136.64</ele>
        <time>2016-11-06T08:47:07Z</time>
      </trkpt>
      <trkpt lat="50.51226" lon="4.10735">
        <ele>137.13</ele>
        <time>2016-11-06T08:47:25Z</time>
      </trkpt>
      <trkpt lat="50.5125" lon="4.10731">
        <ele>136.64</ele>
        <time>2016-11-06T08:47:42Z</time>
      </trkpt>
      <trkpt lat="50.51277" lon="4.10734">
        <ele>134.72</ele>
        <time>2016-11-06T08:48:01Z</time>
      </trkpt>
      <trkpt lat="50.51292" lon="4.10762">
        <ele>133.28</ele>
        <time>2016-11-06T08:48:18Z</time>
      </trkpt>
      <trkpt lat="50.51312" lon="4.10794">
        <ele>131.84</ele>
        <time>2016-11-06T08:48:38Z</time>
      </trkpt>
      <trkpt lat="50.5132" lon="4.10816">
        <ele>131.84</ele>
        <time>2016-11-06T08:48:51Z</time>
      </trkpt>
      <trkpt lat="50.51337" lon="4.10843">
        <ele>130.88</ele>
        <time>2016-11-06T08:49:07Z</time>
      </trkpt>
      <trkpt lat="50.51338" lon="4.10844">
        <ele>130.88</ele>
        <time>2016-11-06T08:49:09Z</time>
      </trkpt>
      <trkpt lat="50.51352" lon="4.10872">
        <ele>129.92</ele>
        <time>2016-11-06T08:49:25Z</time>
      </trkpt>
      <trkpt lat="50.51352" lon="4.10872">
        <ele>129.43</ele>
        <time>2016-11-06T08:49:26Z</time>
      </trkpt>
      <trkpt lat="50.51374" lon="4.10913">
        <ele>128.95</ele>
        <time>2016-11-06T08:49:48Z</time>
      </trkpt>
      <trkpt lat="50.51392" lon="4.10953">
        <ele>128.47</ele>
        <time>2016-11-06T08:50:09Z</time>
      </trkpt>
      <trkpt lat="50.51405" lon="4.10982">
        <ele>127.99</ele>
        <time>2016-11-06T08:50:25Z</time>
      </trkpt>
      <trkpt lat="50.51412" lon="4.10991">
        <ele>127.99</ele>
        <time>2016-11-06T08:50:31Z</time>
      </trkpt>
      <trkpt lat="50.51436" lon="4.10993">
        <ele>127.99</ele>
        <time>2016-11-06T08:50:48Z</time>
      </trkpt>
      <trkpt lat="50.51445" lon="4.10994">
        <ele>127.99</ele>
        <time>2016-11-06T08:50:54Z</time>
      </trkpt>
      <trkpt lat="50.51468" lon="4.10996">
        <ele>127.99</ele>
        <time>2016-11-06T08:51:11Z</time>
      </trkpt>
      <trkpt lat="50.51495" lon="4.10993">
        <ele>127.99</ele>
        <time>2016-11-06T08:51:27Z</time>
      </trkpt>
      <trkpt lat="50.5151" lon="4.10994">
        <ele>127.99</ele>
        <time>2016-11-06T08:51:40Z</time>
      </trkpt>
      <trkpt lat="50.51516" lon="4.10994">
        <ele>127.99</ele>
        <time>2016-11-06T08:51:45Z</time>
      </trkpt>
      <trkpt lat="50.51539" lon="4.10998">
        <ele>127.99</ele>
        <time>2016-11-06T08:52:03Z</time>
      </trkpt>
      <trkpt lat="50.51565" lon="4.11">
        <ele>127.99</ele>
        <time>2016-11-06T08:52:21Z</time>
      </trkpt>
      <trkpt lat="50.51584" lon="4.10998">
        <ele>127.51</ele>
        <time>2016-11-06T08:52:35Z</time>
      </trkpt>
      <trkpt lat="50.5161" lon="4.11">
        <ele>127.03</ele>
        <time>2016-11-06T08:52:50Z</time>
      </trkpt>
      <trkpt lat="50.5163" lon="4.11">
        <ele>127.03</ele>
        <time>2016-11-06T08:53:04Z</time>
      </trkpt>
      <trkpt lat="50.5165" lon="4.11004">
        <ele>128.95</ele>
        <time>2016-11-06T08:53:20Z</time>
      </trkpt>
      <trkpt lat="50.51677" lon="4.11018">
        <ele>129.92</ele>
        <time>2016-11-06T08:53:37Z</time>
      </trkpt>
      <trkpt lat="50.51697" lon="4.11018">
        <ele>130.88</ele>
        <time>2016-11-06T08:53:50Z</time>
      </trkpt>
      <trkpt lat="50.51719" lon="4.11023">
        <ele>131.36</ele>
        <time>2016-11-06T08:54:05Z</time>
      </trkpt>
      <trkpt lat="50.51739" lon="4.11026">
        <ele>132.32</ele>
        <time>2016-11-06T08:54:21Z</time>
      </trkpt>
      <trkpt lat="50.51764" lon="4.11022">
        <ele>132.32</ele>
        <time>2016-11-06T08:54:38Z</time>
      </trkpt>
      <trkpt lat="50.51788" lon="4.11023">
        <ele>129.92</ele>
        <time>2016-11-06T08:54:56Z</time>
      </trkpt>
      <trkpt lat="50.51814" lon="4.11026">
        <ele>129.92</ele>
        <time>2016-11-06T08:55:13Z</time>
      </trkpt>
      <trkpt lat="50.51836" lon="4.11036">
        <ele>129.43</ele>
        <time>2016-11-06T08:55:30Z</time>
      </trkpt>
      <trkpt lat="50.51858" lon="4.11052">
        <ele>129.43</ele>
        <time>2016-11-06T08:55:46Z</time>
      </trkpt>
      <trkpt lat="50.51872" lon="4.11064">
        <ele>129.43</ele>
        <time>2016-11-06T08:56:00Z</time>
      </trkpt>
      <trkpt lat="50.51893" lon="4.11078">
        <ele>129.43</ele>
        <time>2016-11-06T08:56:15Z</time>
      </trkpt>
      <trkpt lat="50.51915" lon="4.11093">
        <ele>129.43</ele>
        <time>2016-11-06T08:56:30Z</time>
      </trkpt>
      <trkpt lat="50.51933" lon="4.11105">
        <ele>129.43</ele>
        <time>2016-11-06T08:56:43Z</time>
      </trkpt>
      <trkpt lat="50.51954" lon="4.11114">
        <ele>130.88</ele>
        <time>2016-11-06T08:56:58Z</time>
      </trkpt>
      <trkpt lat="50.51974" lon="4.11122">
        <ele>131.36</ele>
        <time>2016-11-06T08:57:12Z</time>
      </trkpt>
      <trkpt lat="50.51994" lon="4.11129">
        <ele>132.32</ele>
        <time>2016-11-06T08:57:27Z</time>
      </trkpt>
      <trkpt lat="50.52013" lon="4.11134">
        <ele>133.28</ele>
        <time>2016-11-06T08:57:42Z</time>
      </trkpt>
      <trkpt lat="50.52029" lon="4.11138">
        <ele>133.76</ele>
        <time>2016-11-06T08:57:56Z</time>
      </trkpt>
      <trkpt lat="50.52031" lon="4.11137">
        <ele>134.24</ele>
        <time>2016-11-06T08:57:57Z</time>
      </trkpt>
      <trkpt lat="50.52056" lon="4.11134">
        <ele>134.72</ele>
        <time>2016-11-06T08:58:14Z</time>
      </trkpt>
      <trkpt lat="50.52082" lon="4.11134">
        <ele>135.68</ele>
        <time>2016-11-06T08:58:32Z</time>
      </trkpt>
      <trkpt lat="50.52104" lon="4.11134">
        <ele>135.68</ele>
        <time>2016-11-06T08:58:47Z</time>
      </trkpt>
      <trkpt lat="50.52128" lon="4.11133">
        <ele>135.68</ele>
        <time>2016-11-06T08:59:04Z</time>
      </trkpt>
      <trkpt lat="50.52151" lon="4.1113">
        <ele>135.68</ele>
        <time>2016-11-06T08:59:21Z</time>
      </trkpt>
      <trkpt lat="50.52173" lon="4.11128">
        <ele>135.2</ele>
        <time>2016-11-06T08:59:37Z</time>
      </trkpt>
      <trkpt lat="50.52192" lon="4.11127">
        <ele>135.68</ele>
        <time>2016-11-06T08:59:50Z</time>
      </trkpt>
      <trkpt lat="50.52203" lon="4.11128">
        <ele>135.68</ele>
        <time>2016-11-06T08:59:59Z</time>
      </trkpt>
      <trkpt lat="50.52227" lon="4.11126">
        <ele>135.68</ele>
        <time>2016-11-06T09:00:17Z</time>
      </trkpt>
      <trkpt lat="50.52232" lon="4.11127">
        <ele>135.68</ele>
        <time>2016-11-06T09:00:21Z</time>
      </trkpt>
      <trkpt lat="50.52261" lon="4.11124">
        <ele>135.68</ele>
        <time>2016-11-06T09:00:38Z</time>
      </trkpt>
      <trkpt lat="50.52287" lon="4.11125">
        <ele>136.16</ele>
        <time>2016-11-06T09:00:56Z</time>
      </trkpt>
      <trkpt lat="50.52307" lon="4.11122">
        <ele>136.16</ele>
        <time>2016-11-06T09:01:09Z</time>
      </trkpt>
      <trkpt lat="50.52325" lon="4.1112">
        <ele>136.64</ele>
        <time>2016-11-06T09:01:23Z</time>
      </trkpt>
      <trkpt lat="50.52348" lon="4.11118">
        <ele>137.13</ele>
        <time>2016-11-06T09:01:39Z</time>
      </trkpt>
      <trkpt lat="50.52359" lon="4.11117">
        <ele>137.61</ele>
        <time>2016-11-06T09:01:49Z</time>
      </trkpt>
      <trkpt lat="50.52361" lon="4.11124">
        <ele>137.61</ele>
        <time>2016-11-06T09:01:54Z</time>
      </trkpt>
      <trkpt lat="50.52352" lon="4.11133">
        <ele>136.64</ele>
        <time>2016-11-06T09:02:02Z</time>
      </trkpt>
      <trkpt lat="50.52343" lon="4.11144">
        <ele>136.16</ele>
        <time>2016-11-06T09:02:10Z</time>
      </trkpt>
      <trkpt lat="50.52342" lon="4.1116">
        <ele>136.16</ele>
        <time>2016-11-06T09:02:17Z</time>
      </trkpt>
      <trkpt lat="50.52347" lon="4.11199">
        <ele>134.72</ele>
        <time>2016-11-06T09:02:35Z</time>
      </trkpt>
      <trkpt lat="50.52355" lon="4.11234">
        <ele>134.24</ele>
        <time>2016-11-06T09:02:51Z</time>
      </trkpt>
      <trkpt lat="50.52357" lon="4.11242">
        <ele>134.24</ele>
        <time>2016-11-06T09:02:55Z</time>
      </trkpt>
      <trkpt lat="50.52368" lon="4.11278">
        <ele>133.76</ele>
        <time>2016-11-06T09:03:13Z</time>
      </trkpt>
      <trkpt lat="50.52377" lon="4.11313">
        <ele>132.8</ele>
        <time>2016-11-06T09:03:29Z</time>
      </trkpt>
      <trkpt lat="50.52382" lon="4.11336">
        <ele>132.8</ele>
        <time>2016-11-06T09:03:40Z</time>
      </trkpt>
      <trkpt lat="50.52362" lon="4.11352">
        <ele>131.36</ele>
        <time>2016-11-06T09:03:55Z</time>
      </trkpt>
      <trkpt lat="50.52353" lon="4.11361">
        <ele>129.43</ele>
        <time>2016-11-06T09:04:03Z</time>
      </trkpt>
      <trkpt lat="50.52335" lon="4.11375">
        <ele>128.47</ele>
        <time>2016-11-06T09:04:20Z</time>
      </trkpt>
      <trkpt lat="50.52332" lon="4.11376">
        <ele>127.51</ele>
        <time>2016-11-06T09:04:22Z</time>
      </trkpt>
      <trkpt lat="50.52311" lon="4.11396">
        <ele>126.07</ele>
        <time>2016-11-06T09:04:40Z</time>
      </trkpt>
      <trkpt lat="50.52301" lon="4.11411">
        <ele>126.55</ele>
        <time>2016-11-06T09:04:52Z</time>
      </trkpt>
      <trkpt lat="50.52299" lon="4.11424">
        <ele>125.59</ele>
        <time>2016-11-06T09:05:00Z</time>
      </trkpt>
      <trkpt lat="50.52302" lon="4.11442">
        <ele>126.07</ele>
        <time>2016-11-06T09:05:10Z</time>
      </trkpt>
      <trkpt lat="50.52306" lon="4.11482">
        <ele>126.07</ele>
        <time>2016-11-06T09:05:23Z</time>
      </trkpt>
      <trkpt lat="50.52307" lon="4.11485">
        <ele>126.07</ele>
        <time>2016-11-06T09:05:25Z</time>
      </trkpt>
      <trkpt lat="50.52309" lon="4.11492">
        <ele>125.11</ele>
        <time>2016-11-06T09:05:29Z</time>
      </trkpt>
      <trkpt lat="50.52321" lon="4.11525">
        <ele>125.11</ele>
        <time>2016-11-06T09:05:47Z</time>
      </trkpt>
      <trkpt lat="50.52323" lon="4.11538">
        <ele>126.07</ele>
        <time>2016-11-06T09:05:54Z</time>
      </trkpt>
      <trkpt lat="50.52325" lon="4.11577">
        <ele>126.07</ele>
        <time>2016-11-06T09:06:11Z</time>
      </trkpt>
      <trkpt lat="50.52321" lon="4.11619">
        <ele>126.07</ele>
        <time>2016-11-06T09:06:28Z</time>
      </trkpt>
      <trkpt lat="50.52316" lon="4.11658">
        <ele>126.07</ele>
        <time>2016-11-06T09:06:45Z</time>
      </trkpt>
      <trkpt lat="50.52315" lon="4.11674">
        <ele>126.55</ele>
        <time>2016-11-06T09:06:52Z</time>
      </trkpt>
      <trkpt lat="50.52312" lon="4.11707">
        <ele>126.55</ele>
        <time>2016-11-06T09:07:07Z</time>
      </trkpt>
      <trkpt lat="50.52309" lon="4.11733">
        <ele>127.03</ele>
        <time>2016-11-06T09:07:19Z</time>
      </trkpt>
      <trkpt lat="50.52304" lon="4.11773">
        <ele>127.03</ele>
        <time>2016-11-06T09:07:36Z</time>
      </trkpt>
      <trkpt lat="50.52303" lon="4.11788">
        <ele>127.03</ele>
        <time>2016-11-06T09:07:43Z</time>
      </trkpt>
      <trkpt lat="50.523" lon="4.1182">
        <ele>127.03</ele>
        <time>2016-11-06T09:07:56Z</time>
      </trkpt>
      <trkpt lat="50.523" lon="4.11831">
        <ele>127.03</ele>
        <time>2016-11-06T09:08:01Z</time>
      </trkpt>
      <trkpt lat="50.523" lon="4.11852">
        <ele>127.03</ele>
        <time>2016-11-06T09:08:12Z</time>
      </trkpt>
      <trkpt lat="50.52299" lon="4.11861">
        <ele>127.03</ele>
        <time>2016-11-06T09:08:16Z</time>
      </trkpt>
      <trkpt lat="50.52301" lon="4.11891">
        <ele>126.07</ele>
        <time>2016-11-06T09:08:30Z</time>
      </trkpt>
      <trkpt lat="50.52301" lon="4.11893">
        <ele>126.07</ele>
        <time>2016-11-06T09:08:31Z</time>
      </trkpt>
      <trkpt lat="50.52302" lon="4.11907">
        <ele>125.59</ele>
        <time>2016-11-06T09:08:37Z</time>
      </trkpt>
      <trkpt lat="50.523" lon="4.11941">
        <ele>124.63</ele>
        <time>2016-11-06T09:08:54Z</time>
      </trkpt>
      <trkpt lat="50.52296" lon="4.1197">
        <ele>124.63</ele>
        <time>2016-11-06T09:09:06Z</time>
      </trkpt>
      <trkpt lat="50.52295" lon="4.11975">
        <ele>124.63</ele>
        <time>2016-11-06T09:09:08Z</time>
      </trkpt>
      <trkpt lat="50.52288" lon="4.12016">
        <ele>124.63</ele>
        <time>2016-11-06T09:09:25Z</time>
      </trkpt>
      <trkpt lat="50.52286" lon="4.12052">
        <ele>124.63</ele>
        <time>2016-11-06T09:09:41Z</time>
      </trkpt>
      <trkpt lat="50.52299" lon="4.12078">
        <ele>124.15</ele>
        <time>2016-11-06T09:09:56Z</time>
      </trkpt>
      <trkpt lat="50.52315" lon="4.12115">
        <ele>124.63</ele>
        <time>2016-11-06T09:10:17Z</time>
      </trkpt>
      <trkpt lat="50.52329" lon="4.12143">
        <ele>124.63</ele>
        <time>2016-11-06T09:10:33Z</time>
      </trkpt>
      <trkpt lat="50.52345" lon="4.1217">
        <ele>125.59</ele>
        <time>2016-11-06T09:10:50Z</time>
      </trkpt>
      <trkpt lat="50.52363" lon="4.12199">
        <ele>126.07</ele>
        <time>2016-11-06T09:11:09Z</time>
      </trkpt>
      <trkpt lat="50.52382" lon="4.12232">
        <ele>126.07</ele>
        <time>2016-11-06T09:11:29Z</time>
      </trkpt>
      <trkpt lat="50.52401" lon="4.12262">
        <ele>124.63</ele>
        <time>2016-11-06T09:11:47Z</time>
      </trkpt>
      <trkpt lat="50.52418" lon="4.12287">
        <ele>124.63</ele>
        <time>2016-11-06T09:12:03Z</time>
      </trkpt>
      <trkpt lat="50.52435" lon="4.12319">
        <ele>124.63</ele>
        <time>2016-11-06T09:12:23Z</time>
      </trkpt>
      <trkpt lat="50.52448" lon="4.12344">
        <ele>124.63</ele>
        <time>2016-11-06T09:12:39Z</time>
      </trkpt>
      <trkpt lat="50.52452" lon="4.12359">
        <ele>124.63</ele>
        <time>2016-11-06T09:12:47Z</time>
      </trkpt>
      <trkpt lat="50.5244" lon="4.1239">
        <ele>124.63</ele>
        <time>2016-11-06T09:13:03Z</time>
      </trkpt>
      <trkpt lat="50.52424" lon="4.12424">
        <ele>125.59</ele>
        <time>2016-11-06T09:13:21Z</time>
      </trkpt>
      <trkpt lat="50.52407" lon="4.12454">
        <ele>125.59</ele>
        <time>2016-11-06T09:13:39Z</time>
      </trkpt>
      <trkpt lat="50.52392" lon="4.12486">
        <ele>124.15</ele>
        <time>2016-11-06T09:13:56Z</time>
      </trkpt>
      <trkpt lat="50.52377" lon="4.12519">
        <ele>123.67</ele>
        <time>2016-11-06T09:14:14Z</time>
      </trkpt>
      <trkpt lat="50.52362" lon="4.12551">
        <ele>122.71</ele>
        <time>2016-11-06T09:14:32Z</time>
      </trkpt>
      <trkpt lat="50.52345" lon="4.12586">
        <ele>122.22</ele>
        <time>2016-11-06T09:14:51Z</time>
      </trkpt>
      <trkpt lat="50.52332" lon="4.12613">
        <ele>121.74</ele>
        <time>2016-11-06T09:15:06Z</time>
      </trkpt>
      <trkpt lat="50.52316" lon="4.12644">
        <ele>121.26</ele>
        <time>2016-11-06T09:15:23Z</time>
      </trkpt>
      <trkpt lat="50.52302" lon="4.12673">
        <ele>121.26</ele>
        <time>2016-11-06T09:15:39Z</time>
      </trkpt>
      <trkpt lat="50.52287" lon="4.12701">
        <ele>121.26</ele>
        <time>2016-11-06T09:15:55Z</time>
      </trkpt>
      <trkpt lat="50.5228" lon="4.12717">
        <ele>122.71</ele>
        <time>2016-11-06T09:16:05Z</time>
      </trkpt>
      <trkpt lat="50.52278" lon="4.1273">
        <ele>122.71</ele>
        <time>2016-11-06T09:16:11Z</time>
      </trkpt>
      <trkpt lat="50.5228" lon="4.12741">
        <ele>122.71</ele>
        <time>2016-11-06T09:16:16Z</time>
      </trkpt>
      <trkpt lat="50.52282" lon="4.12751">
        <ele>122.71</ele>
        <time>2016-11-06T09:16:21Z</time>
      </trkpt>
      <trkpt lat="50.52284" lon="4.12761">
        <ele>122.71</ele>
        <time>2016-11-06T09:16:25Z</time>
      </trkpt>
      <trkpt lat="50.52293" lon="4.12787">
        <ele>123.67</ele>
        <time>2016-11-06T09:16:39Z</time>
      </trkpt>
      <trkpt lat="50.52304" lon="4.12818">
        <ele>123.67</ele>
        <time>2016-11-06T09:16:56Z</time>
      </trkpt>
      <trkpt lat="50.52292" lon="4.12845">
        <ele>123.19</ele>
        <time>2016-11-06T09:17:12Z</time>
      </trkpt>
      <trkpt lat="50.52269" lon="4.12863">
        <ele>122.22</ele>
        <time>2016-11-06T09:17:30Z</time>
      </trkpt>
      <trkpt lat="50.5225" lon="4.12882">
        <ele>121.74</ele>
        <time>2016-11-06T09:17:45Z</time>
      </trkpt>
      <trkpt lat="50.52229" lon="4.12899">
        <ele>120.3</ele>
        <time>2016-11-06T09:18:01Z</time>
      </trkpt>
      <trkpt lat="50.52225" lon="4.12905">
        <ele>119.82</ele>
        <time>2016-11-06T09:18:05Z</time>
      </trkpt>
      <trkpt lat="50.52207" lon="4.12923">
        <ele>118.86</ele>
        <time>2016-11-06T09:18:22Z</time>
      </trkpt>
      <trkpt lat="50.52183" lon="4.12942">
        <ele>116.94</ele>
        <time>2016-11-06T09:18:41Z</time>
      </trkpt>
      <trkpt lat="50.52163" lon="4.12961">
        <ele>116.46</ele>
        <time>2016-11-06T09:18:57Z</time>
      </trkpt>
      <trkpt lat="50.52144" lon="4.12978">
        <ele>114.53</ele>
        <time>2016-11-06T09:19:12Z</time>
      </trkpt>
      <trkpt lat="50.52125" lon="4.12997">
        <ele>113.57</ele>
        <time>2016-11-06T09:19:29Z</time>
      </trkpt>
      <trkpt lat="50.52106" lon="4.13012">
        <ele>113.57</ele>
        <time>2016-11-06T09:19:44Z</time>
      </trkpt>
      <trkpt lat="50.52083" lon="4.13032">
        <ele>113.09</ele>
        <time>2016-11-06T09:20:01Z</time>
      </trkpt>
      <trkpt lat="50.52067" lon="4.13046">
        <ele>113.09</ele>
        <time>2016-11-06T09:20:15Z</time>
      </trkpt>
      <trkpt lat="50.52048" lon="4.13066">
        <ele>113.57</ele>
        <time>2016-11-06T09:20:34Z</time>
      </trkpt>
      <trkpt lat="50.52027" lon="4.13085">
        <ele>115.01</ele>
        <time>2016-11-06T09:20:51Z</time>
      </trkpt>
      <trkpt lat="50.5201" lon="4.13103">
        <ele>116.46</ele>
        <time>2016-11-06T09:21:07Z</time>
      </trkpt>
      <trkpt lat="50.51994" lon="4.13118">
        <ele>116.46</ele>
        <time>2016-11-06T09:21:21Z</time>
      </trkpt>
      <trkpt lat="50.51977" lon="4.13129">
        <ele>115.01</ele>
        <time>2016-11-06T09:21:35Z</time>
      </trkpt>
      <trkpt lat="50.51957" lon="4.13123">
        <ele>115.01</ele>
        <time>2016-11-06T09:21:50Z</time>
      </trkpt>
      <trkpt lat="50.51939" lon="4.13109">
        <ele>115.01</ele>
        <time>2016-11-06T09:22:03Z</time>
      </trkpt>
      <trkpt lat="50.51935" lon="4.13107">
        <ele>115.98</ele>
        <time>2016-11-06T09:22:06Z</time>
      </trkpt>
      <trkpt lat="50.51932" lon="4.13102">
        <ele>115.98</ele>
        <time>2016-11-06T09:22:10Z</time>
      </trkpt>
      <trkpt lat="50.51912" lon="4.13081">
        <ele>117.42</ele>
        <time>2016-11-06T09:22:28Z</time>
      </trkpt>
      <trkpt lat="50.51909" lon="4.13075">
        <ele>117.42</ele>
        <time>2016-11-06T09:22:37Z</time>
      </trkpt>
      <trkpt lat="50.51902" lon="4.1308">
        <ele>117.42</ele>
        <time>2016-11-06T09:22:43Z</time>
      </trkpt>
      <trkpt lat="50.51883" lon="4.13095">
        <ele>115.98</ele>
        <time>2016-11-06T09:23:00Z</time>
      </trkpt>
      <trkpt lat="50.51878" lon="4.13099">
        <ele>115.98</ele>
        <time>2016-11-06T09:23:06Z</time>
      </trkpt>
      <trkpt lat="50.51875" lon="4.13104">
        <ele>115.01</ele>
        <time>2016-11-06T09:23:10Z</time>
      </trkpt>
      <trkpt lat="50.51853" lon="4.13123">
        <ele>115.01</ele>
        <time>2016-11-06T09:23:29Z</time>
      </trkpt>
      <trkpt lat="50.51828" lon="4.13143">
        <ele>114.53</ele>
        <time>2016-11-06T09:23:46Z</time>
      </trkpt>
      <trkpt lat="50.51824" lon="4.13145">
        <ele>114.53</ele>
        <time>2016-11-06T09:23:49Z</time>
      </trkpt>
      <trkpt lat="50.51817" lon="4.13141">
        <ele>114.53</ele>
        <time>2016-11-06T09:23:54Z</time>
      </trkpt>
      <trkpt lat="50.518" lon="4.13106">
        <ele>114.53</ele>
        <time>2016-11-06T09:24:14Z</time>
      </trkpt>
      <trkpt lat="50.51781" lon="4.13069">
        <ele>114.53</ele>
        <time>2016-11-06T09:24:35Z</time>
      </trkpt>
      <trkpt lat="50.51768" lon="4.1304">
        <ele>114.53</ele>
        <time>2016-11-06T09:24:51Z</time>
      </trkpt>
      <trkpt lat="50.51755" lon="4.12992">
        <ele>114.53</ele>
        <time>2016-11-06T09:25:13Z</time>
      </trkpt>
      <trkpt lat="50.51739" lon="4.12963">
        <ele>115.98</ele>
        <time>2016-11-06T09:25:32Z</time>
      </trkpt>
      <trkpt lat="50.51714" lon="4.1294">
        <ele>116.46</ele>
        <time>2016-11-06T09:25:50Z</time>
      </trkpt>
      <trkpt lat="50.51688" lon="4.12922">
        <ele>116.94</ele>
        <time>2016-11-06T09:26:10Z</time>
      </trkpt>
      <trkpt lat="50.5166" lon="4.12904">
        <ele>116.94</ele>
        <time>2016-11-06T09:26:30Z</time>
      </trkpt>
      <trkpt lat="50.51641" lon="4.12893">
        <ele>117.42</ele>
        <time>2016-11-06T09:26:45Z</time>
      </trkpt>
      <trkpt lat="50.51625" lon="4.12879">
        <ele>117.9</ele>
        <time>2016-11-06T09:26:59Z</time>
      </trkpt>
      <trkpt lat="50.5161" lon="4.12861">
        <ele>118.38</ele>
        <time>2016-11-06T09:27:13Z</time>
      </trkpt>
      <trkpt lat="50.51609" lon="4.1286">
        <ele>118.38</ele>
        <time>2016-11-06T09:27:15Z</time>
      </trkpt>
      <trkpt lat="50.51602" lon="4.12853">
        <ele>118.38</ele>
        <time>2016-11-06T09:27:20Z</time>
      </trkpt>
      <trkpt lat="50.51586" lon="4.12836">
        <ele>118.86</ele>
        <time>2016-11-06T09:27:36Z</time>
      </trkpt>
      <trkpt lat="50.51574" lon="4.12821">
        <ele>119.82</ele>
        <time>2016-11-06T09:27:49Z</time>
      </trkpt>
      <trkpt lat="50.5156" lon="4.12804">
        <ele>120.3</ele>
        <time>2016-11-06T09:28:03Z</time>
      </trkpt>
      <trkpt lat="50.51551" lon="4.12788">
        <ele>120.78</ele>
        <time>2016-11-06T09:28:16Z</time>
      </trkpt>
      <trkpt lat="50.5154" lon="4.12775">
        <ele>121.74</ele>
        <time>2016-11-06T09:28:28Z</time>
      </trkpt>
      <trkpt lat="50.51528" lon="4.12757">
        <ele>122.22</ele>
        <time>2016-11-06T09:28:39Z</time>
      </trkpt>
      <trkpt lat="50.51515" lon="4.1274">
        <ele>122.71</ele>
        <time>2016-11-06T09:28:51Z</time>
      </trkpt>
      <trkpt lat="50.515" lon="4.12714">
        <ele>122.71</ele>
        <time>2016-11-06T09:29:04Z</time>
      </trkpt>
      <trkpt lat="50.51497" lon="4.1271">
        <ele>122.71</ele>
        <time>2016-11-06T09:29:06Z</time>
      </trkpt>
      <trkpt lat="50.51492" lon="4.12703">
        <ele>123.19</ele>
        <time>2016-11-06T09:29:11Z</time>
      </trkpt>
      <trkpt lat="50.51478" lon="4.12684">
        <ele>123.67</ele>
        <time>2016-11-06T09:29:25Z</time>
      </trkpt>
      <trkpt lat="50.51464" lon="4.12663">
        <ele>124.15</ele>
        <time>2016-11-06T09:29:38Z</time>
      </trkpt>
      <trkpt lat="50.51448" lon="4.12638">
        <ele>124.15</ele>
        <time>2016-11-06T09:29:52Z</time>
      </trkpt>
      <trkpt lat="50.51432" lon="4.12615">
        <ele>124.63</ele>
        <time>2016-11-06T09:30:09Z</time>
      </trkpt>
      <trkpt lat="50.5142" lon="4.12596">
        <ele>124.63</ele>
        <time>2016-11-06T09:30:21Z</time>
      </trkpt>
      <trkpt lat="50.51408" lon="4.12579">
        <ele>125.11</ele>
        <time>2016-11-06T09:30:33Z</time>
      </trkpt>
      <trkpt lat="50.51389" lon="4.12551">
        <ele>125.11</ele>
        <time>2016-11-06T09:30:51Z</time>
      </trkpt>
      <trkpt lat="50.51375" lon="4.12538">
        <ele>125.59</ele>
        <time>2016-11-06T09:31:03Z</time>
      </trkpt>
      <trkpt lat="50.51373" lon="4.12537">
        <ele>125.59</ele>
        <time>2016-11-06T09:31:04Z</time>
      </trkpt>
      <trkpt lat="50.51358" lon="4.12517">
        <ele>125.59</ele>
        <time>2016-11-06T09:31:16Z</time>
      </trkpt>
      <trkpt lat="50.51341" lon="4.12493">
        <ele>125.59</ele>
        <time>2016-11-06T09:31:31Z</time>
      </trkpt>
      <trkpt lat="50.51337" lon="4.12486">
        <ele>125.59</ele>
        <time>2016-11-06T09:31:36Z</time>
      </trkpt>
      <trkpt lat="50.51332" lon="4.1248">
        <ele>126.07</ele>
        <time>2016-11-06T09:31:40Z</time>
      </trkpt>
      <trkpt lat="50.51327" lon="4.12474">
        <ele>126.07</ele>
        <time>2016-11-06T09:31:44Z</time>
      </trkpt>
      <trkpt lat="50.51311" lon="4.12452">
        <ele>126.07</ele>
        <time>2016-11-06T09:31:58Z</time>
      </trkpt>
      <trkpt lat="50.51308" lon="4.1245">
        <ele>126.07</ele>
        <time>2016-11-06T09:32:00Z</time>
      </trkpt>
      <trkpt lat="50.51296" lon="4.12434">
        <ele>126.07</ele>
        <time>2016-11-06T09:32:13Z</time>
      </trkpt>
      <trkpt lat="50.51294" lon="4.12431">
        <ele>126.07</ele>
        <time>2016-11-06T09:32:15Z</time>
      </trkpt>
      <trkpt lat="50.51276" lon="4.12405">
        <ele>126.55</ele>
        <time>2016-11-06T09:32:30Z</time>
      </trkpt>
      <trkpt lat="50.5126" lon="4.1238">
        <ele>126.55</ele>
        <time>2016-11-06T09:32:45Z</time>
      </trkpt>
      <trkpt lat="50.51252" lon="4.12374">
        <ele>126.55</ele>
        <time>2016-11-06T09:32:53Z</time>
      </trkpt>
      <trkpt lat="50.51231" lon="4.12347">
        <ele>126.55</ele>
        <time>2016-11-06T09:33:10Z</time>
      </trkpt>
      <trkpt lat="50.51214" lon="4.12322">
        <ele>126.55</ele>
        <time>2016-11-06T09:33:25Z</time>
      </trkpt>
      <trkpt lat="50.51207" lon="4.12313">
        <ele>126.55</ele>
        <time>2016-11-06T09:33:32Z</time>
      </trkpt>
      <trkpt lat="50.51205" lon="4.12312">
        <ele>126.55</ele>
        <time>2016-11-06T09:33:34Z</time>
      </trkpt>
      <trkpt lat="50.51188" lon="4.1229">
        <ele>127.03</ele>
        <time>2016-11-06T09:33:49Z</time>
      </trkpt>
      <trkpt lat="50.51173" lon="4.12268">
        <ele>127.03</ele>
        <time>2016-11-06T09:34:02Z</time>
      </trkpt>
      <trkpt lat="50.51155" lon="4.12245">
        <ele>126.55</ele>
        <time>2016-11-06T09:34:19Z</time>
      </trkpt>
      <trkpt lat="50.51153" lon="4.12243">
        <ele>126.55</ele>
        <time>2016-11-06T09:34:21Z</time>
      </trkpt>
      <trkpt lat="50.5114" lon="4.12228">
        <ele>127.03</ele>
        <time>2016-11-06T09:34:35Z</time>
      </trkpt>
      <trkpt lat="50.51142" lon="4.12214">
        <ele>127.03</ele>
        <time>2016-11-06T09:34:47Z</time>
      </trkpt>
      <trkpt lat="50.51158" lon="4.12211">
        <ele>128.95</ele>
        <time>2016-11-06T09:35:01Z</time>
      </trkpt>
      <trkpt lat="50.51174" lon="4.12207">
        <ele>129.43</ele>
        <time>2016-11-06T09:35:15Z</time>
      </trkpt>
      <trkpt lat="50.51189" lon="4.12195">
        <ele>127.99</ele>
        <time>2016-11-06T09:35:30Z</time>
      </trkpt>
      <trkpt lat="50.51199" lon="4.12187">
        <ele>127.99</ele>
        <time>2016-11-06T09:35:38Z</time>
      </trkpt>
      <trkpt lat="50.51212" lon="4.12182">
        <ele>127.03</ele>
        <time>2016-11-06T09:35:53Z</time>
      </trkpt>
      <trkpt lat="50.51223" lon="4.12174">
        <ele>126.55</ele>
        <time>2016-11-06T09:36:05Z</time>
      </trkpt>
      <trkpt lat="50.51246" lon="4.12165">
        <ele>125.59</ele>
        <time>2016-11-06T09:36:17Z</time>
      </trkpt>
      <trkpt lat="50.51264" lon="4.12155">
        <ele>125.11</ele>
        <time>2016-11-06T09:36:32Z</time>
      </trkpt>
      <trkpt lat="50.51281" lon="4.12148">
        <ele>124.63</ele>
        <time>2016-11-06T09:36:43Z</time>
      </trkpt>
      <trkpt lat="50.51309" lon="4.12131">
        <ele>123.19</ele>
        <time>2016-11-06T09:36:58Z</time>
      </trkpt>
      <trkpt lat="50.5132" lon="4.12124">
        <ele>122.71</ele>
        <time>2016-11-06T09:37:13Z</time>
      </trkpt>
      <trkpt lat="50.51328" lon="4.12122">
        <ele>122.22</ele>
        <time>2016-11-06T09:37:24Z</time>
      </trkpt>
      <trkpt lat="50.51339" lon="4.12111">
        <ele>121.74</ele>
        <time>2016-11-06T09:37:35Z</time>
      </trkpt>
      <trkpt lat="50.51355" lon="4.12102">
        <ele>121.26</ele>
        <time>2016-11-06T09:37:42Z</time>
      </trkpt>
      <trkpt lat="50.51364" lon="4.12097">
        <ele>120.78</ele>
        <time>2016-11-06T09:37:48Z</time>
      </trkpt>
      <trkpt lat="50.51386" lon="4.12092">
        <ele>118.86</ele>
        <time>2016-11-06T09:38:03Z</time>
      </trkpt>
      <trkpt lat="50.51397" lon="4.12088">
        <ele>118.38</ele>
        <time>2016-11-06T09:38:17Z</time>
      </trkpt>
      <trkpt lat="50.514" lon="4.12086">
        <ele>117.9</ele>
        <time>2016-11-06T09:38:20Z</time>
      </trkpt>
      <trkpt lat="50.51427" lon="4.12074">
        <ele>116.94</ele>
        <time>2016-11-06T09:38:32Z</time>
      </trkpt>
      <trkpt lat="50.51443" lon="4.12066">
        <ele>116.46</ele>
        <time>2016-11-06T09:38:46Z</time>
      </trkpt>
      <trkpt lat="50.51459" lon="4.12053">
        <ele>115.5</ele>
        <time>2016-11-06T09:39:00Z</time>
      </trkpt>
      <trkpt lat="50.51471" lon="4.12048">
        <ele>114.05</ele>
        <time>2016-11-06T09:39:11Z</time>
      </trkpt>
      <trkpt lat="50.51482" lon="4.12045">
        <ele>113.57</ele>
        <time>2016-11-06T09:39:23Z</time>
      </trkpt>
      <trkpt lat="50.51498" lon="4.12034">
        <ele>113.09</ele>
        <time>2016-11-06T09:39:38Z</time>
      </trkpt>
      <trkpt lat="50.51517" lon="4.12023">
        <ele>113.09</ele>
        <time>2016-11-06T09:39:51Z</time>
      </trkpt>
      <trkpt lat="50.51535" lon="4.12005">
        <ele>113.09</ele>
        <time>2016-11-06T09:40:05Z</time>
      </trkpt>
      <trkpt lat="50.5155" lon="4.11984">
        <ele>113.09</ele>
        <time>2016-11-06T09:40:18Z</time>
      </trkpt>
      <trkpt lat="50.51563" lon="4.11965">
        <ele>114.05</ele>
        <time>2016-11-06T09:40:29Z</time>
      </trkpt>
      <trkpt lat="50.51575" lon="4.11942">
        <ele>114.53</ele>
        <time>2016-11-06T09:40:41Z</time>
      </trkpt>
      <trkpt lat="50.5158" lon="4.11924">
        <ele>115.01</ele>
        <time>2016-11-06T09:40:50Z</time>
      </trkpt>
      <trkpt lat="50.51586" lon="4.11893">
        <ele>115.01</ele>
        <time>2016-11-06T09:41:03Z</time>
      </trkpt>
      <trkpt lat="50.51589" lon="4.11864">
        <ele>115.5</ele>
        <time>2016-11-06T09:41:14Z</time>
      </trkpt>
      <trkpt lat="50.51593" lon="4.1183">
        <ele>115.98</ele>
        <time>2016-11-06T09:41:30Z</time>
      </trkpt>
      <trkpt lat="50.51598" lon="4.11808">
        <ele>116.46</ele>
        <time>2016-11-06T09:41:42Z</time>
      </trkpt>
      <trkpt lat="50.51599" lon="4.11781">
        <ele>116.94</ele>
        <time>2016-11-06T09:41:55Z</time>
      </trkpt>
      <trkpt lat="50.51601" lon="4.11755">
        <ele>116.94</ele>
        <time>2016-11-06T09:42:07Z</time>
      </trkpt>
      <trkpt lat="50.51603" lon="4.11742">
        <ele>117.42</ele>
        <time>2016-11-06T09:42:14Z</time>
      </trkpt>
      <trkpt lat="50.51604" lon="4.11724">
        <ele>117.42</ele>
        <time>2016-11-06T09:42:21Z</time>
      </trkpt>
      <trkpt lat="50.51607" lon="4.11693">
        <ele>118.38</ele>
        <time>2016-11-06T09:42:34Z</time>
      </trkpt>
      <trkpt lat="50.51614" lon="4.11682">
        <ele>118.86</ele>
        <time>2016-11-06T09:42:47Z</time>
      </trkpt>
      <trkpt lat="50.51615" lon="4.11687">
        <ele>118.86</ele>
        <time>2016-11-06T09:43:08Z</time>
      </trkpt>
      <trkpt lat="50.51612" lon="4.11682">
        <ele>118.86</ele>
        <time>2016-11-06T09:43:20Z</time>
      </trkpt>
      <trkpt lat="50.51601" lon="4.11672">
        <ele>118.86</ele>
        <time>2016-11-06T09:43:27Z</time>
      </trkpt>
      <trkpt lat="50.51595" lon="4.1167">
        <ele>118.86</ele>
        <time>2016-11-06T09:43:32Z</time>
      </trkpt>
      <trkpt lat="50.51583" lon="4.11662">
        <ele>118.86</ele>
        <time>2016-11-06T09:43:39Z</time>
      </trkpt>
      <trkpt lat="50.51576" lon="4.11655">
        <ele>118.86</ele>
        <time>2016-11-06T09:43:45Z</time>
      </trkpt>
      <trkpt lat="50.51574" lon="4.11654">
        <ele>118.86</ele>
        <time>2016-11-06T09:43:46Z</time>
      </trkpt>
      <trkpt lat="50.51572" lon="4.11652">
        <ele>118.86</ele>
        <time>2016-11-06T09:43:48Z</time>
      </trkpt>
      <trkpt lat="50.5157" lon="4.11649">
        <ele>118.86</ele>
        <time>2016-11-06T09:43:50Z</time>
      </trkpt>
      <trkpt lat="50.51568" lon="4.11649">
        <ele>118.86</ele>
        <time>2016-11-06T09:43:51Z</time>
      </trkpt>
      <trkpt lat="50.51567" lon="4.11648">
        <ele>118.86</ele>
        <time>2016-11-06T09:43:52Z</time>
      </trkpt>
      <trkpt lat="50.51565" lon="4.11647">
        <ele>118.86</ele>
        <time>2016-11-06T09:43:53Z</time>
      </trkpt>
      <trkpt lat="50.51563" lon="4.11646">
        <ele>118.86</ele>
        <time>2016-11-06T09:43:54Z</time>
      </trkpt>
      <trkpt lat="50.51562" lon="4.11645">
        <ele>118.86</ele>
        <time>2016-11-06T09:43:55Z</time>
      </trkpt>
      <trkpt lat="50.5156" lon="4.11644">
        <ele>118.86</ele>
        <time>2016-11-06T09:43:56Z</time>
      </trkpt>
      <trkpt lat="50.51553" lon="4.11638">
        <ele>118.86</ele>
        <time>2016-11-06T09:44:01Z</time>
      </trkpt>
      <trkpt lat="50.51551" lon="4.11638">
        <ele>118.86</ele>
        <time>2016-11-06T09:44:02Z</time>
      </trkpt>
      <trkpt lat="50.5155" lon="4.11638">
        <ele>118.86</ele>
        <time>2016-11-06T09:44:03Z</time>
      </trkpt>
      <trkpt lat="50.51549" lon="4.11639">
        <ele>118.86</ele>
        <time>2016-11-06T09:44:04Z</time>
      </trkpt>
      <trkpt lat="50.51547" lon="4.11638">
        <ele>118.86</ele>
        <time>2016-11-06T09:44:05Z</time>
      </trkpt>
      <trkpt lat="50.51546" lon="4.11637">
        <ele>118.86</ele>
        <time>2016-11-06T09:44:06Z</time>
      </trkpt>
      <trkpt lat="50.51545" lon="4.11637">
        <ele>118.86</ele>
        <time>2016-11-06T09:44:07Z</time>
      </trkpt>
      <trkpt lat="50.51542" lon="4.11637">
        <ele>118.86</ele>
        <time>2016-11-06T09:44:09Z</time>
      </trkpt>
      <trkpt lat="50.51541" lon="4.11637">
        <ele>118.86</ele>
        <time>2016-11-06T09:44:10Z</time>
      </trkpt>
      <trkpt lat="50.51539" lon="4.11636">
        <ele>118.86</ele>
        <time>2016-11-06T09:44:11Z</time>
      </trkpt>
      <trkpt lat="50.51538" lon="4.11636">
        <ele>118.86</ele>
        <time>2016-11-06T09:44:12Z</time>
      </trkpt>
      <trkpt lat="50.51536" lon="4.11637">
        <ele>118.86</ele>
        <time>2016-11-06T09:44:13Z</time>
      </trkpt>
      <trkpt lat="50.51535" lon="4.11637">
        <ele>118.86</ele>
        <time>2016-11-06T09:44:14Z</time>
      </trkpt>
      <trkpt lat="50.51533" lon="4.11637">
        <ele>118.86</ele>
        <time>2016-11-06T09:44:15Z</time>
      </trkpt>
      <trkpt lat="50.51531" lon="4.11637">
        <ele>118.86</ele>
        <time>2016-11-06T09:44:16Z</time>
      </trkpt>
      <trkpt lat="50.5153" lon="4.11638">
        <ele>118.86</ele>
        <time>2016-11-06T09:44:17Z</time>
      </trkpt>
      <trkpt lat="50.51529" lon="4.11639">
        <ele>118.86</ele>
        <time>2016-11-06T09:44:18Z</time>
      </trkpt>
      <trkpt lat="50.51527" lon="4.11638">
        <ele>118.86</ele>
        <time>2016-11-06T09:44:19Z</time>
      </trkpt>
      <trkpt lat="50.51526" lon="4.11638">
        <ele>118.86</ele>
        <time>2016-11-06T09:44:20Z</time>
      </trkpt>
      <trkpt lat="50.51524" lon="4.11637">
        <ele>118.86</ele>
        <time>2016-11-06T09:44:21Z</time>
      </trkpt>
      <trkpt lat="50.51523" lon="4.11636">
        <ele>118.86</ele>
        <time>2016-11-06T09:44:22Z</time>
      </trkpt>
      <trkpt lat="50.51522" lon="4.11635">
        <ele>118.86</ele>
        <time>2016-11-06T09:44:23Z</time>
      </trkpt>
      <trkpt lat="50.5152" lon="4.11635">
        <ele>118.86</ele>
        <time>2016-11-06T09:44:24Z</time>
      </trkpt>
      <trkpt lat="50.51516" lon="4.11633">
        <ele>118.86</ele>
        <time>2016-11-06T09:44:27Z</time>
      </trkpt>
      <trkpt lat="50.51514" lon="4.11633">
        <ele>118.86</ele>
        <time>2016-11-06T09:44:28Z</time>
      </trkpt>
      <trkpt lat="50.51513" lon="4.11634">
        <ele>118.86</ele>
        <time>2016-11-06T09:44:29Z</time>
      </trkpt>
      <trkpt lat="50.51511" lon="4.11635">
        <ele>118.86</ele>
        <time>2016-11-06T09:44:30Z</time>
      </trkpt>
      <trkpt lat="50.5151" lon="4.11635">
        <ele>118.86</ele>
        <time>2016-11-06T09:44:31Z</time>
      </trkpt>
      <trkpt lat="50.51508" lon="4.11635">
        <ele>118.86</ele>
        <time>2016-11-06T09:44:32Z</time>
      </trkpt>
      <trkpt lat="50.51507" lon="4.11634">
        <ele>118.86</ele>
        <time>2016-11-06T09:44:33Z</time>
      </trkpt>
      <trkpt lat="50.51506" lon="4.11634">
        <ele>118.86</ele>
        <time>2016-11-06T09:44:34Z</time>
      </trkpt>
      <trkpt lat="50.51499" lon="4.11634">
        <ele>118.86</ele>
        <time>2016-11-06T09:44:40Z</time>
      </trkpt>
      <trkpt lat="50.51498" lon="4.11634">
        <ele>118.86</ele>
        <time>2016-11-06T09:44:41Z</time>
      </trkpt>
      <trkpt lat="50.51497" lon="4.11634">
        <ele>118.86</ele>
        <time>2016-11-06T09:44:42Z</time>
      </trkpt>
      <trkpt lat="50.51495" lon="4.11633">
        <ele>118.86</ele>
        <time>2016-11-06T09:44:43Z</time>
      </trkpt>
      <trkpt lat="50.51493" lon="4.11632">
        <ele>118.86</ele>
        <time>2016-11-06T09:44:45Z</time>
      </trkpt>
      <trkpt lat="50.51491" lon="4.11632">
        <ele>118.86</ele>
        <time>2016-11-06T09:44:46Z</time>
      </trkpt>
      <trkpt lat="50.5149" lon="4.11631">
        <ele>118.86</ele>
        <time>2016-11-06T09:44:47Z</time>
      </trkpt>
      <trkpt lat="50.51485" lon="4.11628">
        <ele>118.86</ele>
        <time>2016-11-06T09:44:51Z</time>
      </trkpt>
      <trkpt lat="50.51484" lon="4.11628">
        <ele>118.86</ele>
        <time>2016-11-06T09:44:52Z</time>
      </trkpt>
      <trkpt lat="50.51483" lon="4.11629">
        <ele>118.86</ele>
        <time>2016-11-06T09:44:53Z</time>
      </trkpt>
      <trkpt lat="50.51482" lon="4.11629">
        <ele>118.86</ele>
        <time>2016-11-06T09:44:54Z</time>
      </trkpt>
      <trkpt lat="50.5148" lon="4.11629">
        <ele>118.86</ele>
        <time>2016-11-06T09:44:55Z</time>
      </trkpt>
      <trkpt lat="50.51479" lon="4.11628">
        <ele>118.86</ele>
        <time>2016-11-06T09:44:56Z</time>
      </trkpt>
      <trkpt lat="50.51477" lon="4.11628">
        <ele>118.86</ele>
        <time>2016-11-06T09:44:57Z</time>
      </trkpt>
      <trkpt lat="50.51476" lon="4.11628">
        <ele>118.86</ele>
        <time>2016-11-06T09:44:58Z</time>
      </trkpt>
      <trkpt lat="50.51473" lon="4.11628">
        <ele>118.86</ele>
        <time>2016-11-06T09:45:00Z</time>
      </trkpt>
      <trkpt lat="50.51472" lon="4.11628">
        <ele>119.34</ele>
        <time>2016-11-06T09:45:01Z</time>
      </trkpt>
      <trkpt lat="50.5147" lon="4.11628">
        <ele>119.34</ele>
        <time>2016-11-06T09:45:02Z</time>
      </trkpt>
      <trkpt lat="50.51469" lon="4.11629">
        <ele>119.34</ele>
        <time>2016-11-06T09:45:03Z</time>
      </trkpt>
      <trkpt lat="50.51467" lon="4.1163">
        <ele>119.34</ele>
        <time>2016-11-06T09:45:04Z</time>
      </trkpt>
      <trkpt lat="50.51466" lon="4.1163">
        <ele>119.34</ele>
        <time>2016-11-06T09:45:05Z</time>
      </trkpt>
      <trkpt lat="50.51464" lon="4.11629">
        <ele>119.34</ele>
        <time>2016-11-06T09:45:06Z</time>
      </trkpt>
      <trkpt lat="50.51462" lon="4.11629">
        <ele>119.34</ele>
        <time>2016-11-06T09:45:07Z</time>
      </trkpt>
      <trkpt lat="50.5145" lon="4.11624">
        <ele>119.34</ele>
        <time>2016-11-06T09:45:16Z</time>
      </trkpt>
      <trkpt lat="50.51449" lon="4.11624">
        <ele>119.34</ele>
        <time>2016-11-06T09:45:17Z</time>
      </trkpt>
      <trkpt lat="50.51437" lon="4.11625">
        <ele>119.82</ele>
        <time>2016-11-06T09:45:26Z</time>
      </trkpt>
      <trkpt lat="50.51436" lon="4.11625">
        <ele>119.82</ele>
        <time>2016-11-06T09:45:27Z</time>
      </trkpt>
      <trkpt lat="50.51434" lon="4.11625">
        <ele>119.82</ele>
        <time>2016-11-06T09:45:28Z</time>
      </trkpt>
      <trkpt lat="50.51433" lon="4.11625">
        <ele>119.82</ele>
        <time>2016-11-06T09:45:29Z</time>
      </trkpt>
      <trkpt lat="50.51431" lon="4.11624">
        <ele>119.82</ele>
        <time>2016-11-06T09:45:30Z</time>
      </trkpt>
      <trkpt lat="50.5143" lon="4.11623">
        <ele>119.82</ele>
        <time>2016-11-06T09:45:31Z</time>
      </trkpt>
      <trkpt lat="50.51428" lon="4.11623">
        <ele>119.82</ele>
        <time>2016-11-06T09:45:32Z</time>
      </trkpt>
      <trkpt lat="50.51427" lon="4.11623">
        <ele>119.82</ele>
        <time>2016-11-06T09:45:33Z</time>
      </trkpt>
      <trkpt lat="50.51425" lon="4.11623">
        <ele>119.82</ele>
        <time>2016-11-06T09:45:34Z</time>
      </trkpt>
      <trkpt lat="50.51424" lon="4.11623">
        <ele>119.82</ele>
        <time>2016-11-06T09:45:35Z</time>
      </trkpt>
      <trkpt lat="50.51422" lon="4.11623">
        <ele>119.82</ele>
        <time>2016-11-06T09:45:36Z</time>
      </trkpt>
      <trkpt lat="50.51421" lon="4.11623">
        <ele>119.82</ele>
        <time>2016-11-06T09:45:37Z</time>
      </trkpt>
      <trkpt lat="50.51419" lon="4.11623">
        <ele>119.82</ele>
        <time>2016-11-06T09:45:38Z</time>
      </trkpt>
      <trkpt lat="50.51418" lon="4.11623">
        <ele>119.82</ele>
        <time>2016-11-06T09:45:39Z</time>
      </trkpt>
      <trkpt lat="50.51416" lon="4.11624">
        <ele>119.82</ele>
        <time>2016-11-06T09:45:40Z</time>
      </trkpt>
      <trkpt lat="50.51415" lon="4.11624">
        <ele>119.82</ele>
        <time>2016-11-06T09:45:41Z</time>
      </trkpt>
      <trkpt lat="50.51399" lon="4.11623">
        <ele>120.78</ele>
        <time>2016-11-06T09:45:53Z</time>
      </trkpt>
      <trkpt lat="50.51394" lon="4.11622">
        <ele>120.78</ele>
        <time>2016-11-06T09:45:56Z</time>
      </trkpt>
      <trkpt lat="50.51379" lon="4.11625">
        <ele>120.78</ele>
        <time>2016-11-06T09:46:08Z</time>
      </trkpt>
      <trkpt lat="50.51362" lon="4.1163">
        <ele>121.26</ele>
        <time>2016-11-06T09:46:19Z</time>
      </trkpt>
      <trkpt lat="50.51343" lon="4.11643">
        <ele>121.74</ele>
        <time>2016-11-06T09:46:33Z</time>
      </trkpt>
      <trkpt lat="50.51329" lon="4.11653">
        <ele>122.22</ele>
        <time>2016-11-06T09:46:43Z</time>
      </trkpt>
      <trkpt lat="50.51307" lon="4.11668">
        <ele>122.71</ele>
        <time>2016-11-06T09:46:57Z</time>
      </trkpt>
      <trkpt lat="50.51305" lon="4.11669">
        <ele>122.71</ele>
        <time>2016-11-06T09:46:58Z</time>
      </trkpt>
      <trkpt lat="50.51302" lon="4.11669">
        <ele>122.71</ele>
        <time>2016-11-06T09:47:00Z</time>
      </trkpt>
      <trkpt lat="50.513" lon="4.1167">
        <ele>122.71</ele>
        <time>2016-11-06T09:47:01Z</time>
      </trkpt>
      <trkpt lat="50.51276" lon="4.11683">
        <ele>123.19</ele>
        <time>2016-11-06T09:47:14Z</time>
      </trkpt>
      <trkpt lat="50.51263" lon="4.11692">
        <ele>123.19</ele>
        <time>2016-11-06T09:47:24Z</time>
      </trkpt>
      <trkpt lat="50.51262" lon="4.11694">
        <ele>123.19</ele>
        <time>2016-11-06T09:47:25Z</time>
      </trkpt>
      <trkpt lat="50.51261" lon="4.11695">
        <ele>123.19</ele>
        <time>2016-11-06T09:47:26Z</time>
      </trkpt>
      <trkpt lat="50.5126" lon="4.11696">
        <ele>123.19</ele>
        <time>2016-11-06T09:47:27Z</time>
      </trkpt>
      <trkpt lat="50.51259" lon="4.11697">
        <ele>123.19</ele>
        <time>2016-11-06T09:47:28Z</time>
      </trkpt>
      <trkpt lat="50.51258" lon="4.11698">
        <ele>123.19</ele>
        <time>2016-11-06T09:47:29Z</time>
      </trkpt>
      <trkpt lat="50.51254" lon="4.117">
        <ele>123.19</ele>
        <time>2016-11-06T09:47:32Z</time>
      </trkpt>
      <trkpt lat="50.51253" lon="4.11701">
        <ele>123.19</ele>
        <time>2016-11-06T09:47:33Z</time>
      </trkpt>
      <trkpt lat="50.51252" lon="4.11701">
        <ele>123.19</ele>
        <time>2016-11-06T09:47:34Z</time>
      </trkpt>
      <trkpt lat="50.51235" lon="4.1172">
        <ele>123.67</ele>
        <time>2016-11-06T09:47:47Z</time>
      </trkpt>
      <trkpt lat="50.51217" lon="4.11741">
        <ele>123.67</ele>
        <time>2016-11-06T09:47:59Z</time>
      </trkpt>
      <trkpt lat="50.51204" lon="4.11747">
        <ele>123.67</ele>
        <time>2016-11-06T09:48:11Z</time>
      </trkpt>
      <trkpt lat="50.51203" lon="4.11748">
        <ele>123.67</ele>
        <time>2016-11-06T09:48:12Z</time>
      </trkpt>
      <trkpt lat="50.51202" lon="4.11749">
        <ele>123.67</ele>
        <time>2016-11-06T09:48:13Z</time>
      </trkpt>
      <trkpt lat="50.51193" lon="4.11781">
        <ele>123.67</ele>
        <time>2016-11-06T09:48:27Z</time>
      </trkpt>
      <trkpt lat="50.51192" lon="4.11798">
        <ele>124.15</ele>
        <time>2016-11-06T09:48:35Z</time>
      </trkpt>
      <trkpt lat="50.51191" lon="4.118">
        <ele>124.15</ele>
        <time>2016-11-06T09:48:36Z</time>
      </trkpt>
      <trkpt lat="50.51191" lon="4.11802">
        <ele>124.15</ele>
        <time>2016-11-06T09:48:37Z</time>
      </trkpt>
      <trkpt lat="50.51191" lon="4.11804">
        <ele>124.15</ele>
        <time>2016-11-06T09:48:38Z</time>
      </trkpt>
      <trkpt lat="50.51189" lon="4.11806">
        <ele>124.15</ele>
        <time>2016-11-06T09:48:40Z</time>
      </trkpt>
      <trkpt lat="50.51187" lon="4.11807">
        <ele>124.15</ele>
        <time>2016-11-06T09:48:41Z</time>
      </trkpt>
      <trkpt lat="50.51186" lon="4.11808">
        <ele>124.15</ele>
        <time>2016-11-06T09:48:42Z</time>
      </trkpt>
      <trkpt lat="50.51172" lon="4.11822">
        <ele>124.15</ele>
        <time>2016-11-06T09:48:56Z</time>
      </trkpt>
      <trkpt lat="50.51157" lon="4.11833">
        <ele>124.15</ele>
        <time>2016-11-06T09:49:09Z</time>
      </trkpt>
      <trkpt lat="50.5115" lon="4.11832">
        <ele>124.15</ele>
        <time>2016-11-06T09:49:12Z</time>
      </trkpt>
      <trkpt lat="50.51148" lon="4.11832">
        <ele>124.15</ele>
        <time>2016-11-06T09:49:13Z</time>
      </trkpt>
      <trkpt lat="50.51128" lon="4.11837">
        <ele>124.63</ele>
        <time>2016-11-06T09:49:25Z</time>
      </trkpt>
      <trkpt lat="50.51111" lon="4.11851">
        <ele>124.63</ele>
        <time>2016-11-06T09:49:40Z</time>
      </trkpt>
      <trkpt lat="50.51093" lon="4.11863">
        <ele>125.11</ele>
        <time>2016-11-06T09:49:53Z</time>
      </trkpt>
      <trkpt lat="50.5108" lon="4.11855">
        <ele>125.11</ele>
        <time>2016-11-06T09:50:07Z</time>
      </trkpt>
      <trkpt lat="50.51078" lon="4.11845">
        <ele>125.11</ele>
        <time>2016-11-06T09:50:15Z</time>
      </trkpt>
      <trkpt lat="50.51076" lon="4.11845">
        <ele>125.11</ele>
        <time>2016-11-06T09:50:16Z</time>
      </trkpt>
      <trkpt lat="50.51075" lon="4.11846">
        <ele>125.11</ele>
        <time>2016-11-06T09:50:17Z</time>
      </trkpt>
      <trkpt lat="50.51055" lon="4.11862">
        <ele>125.11</ele>
        <time>2016-11-06T09:50:32Z</time>
      </trkpt>
      <trkpt lat="50.51037" lon="4.11874">
        <ele>125.59</ele>
        <time>2016-11-06T09:50:46Z</time>
      </trkpt>
      <trkpt lat="50.51015" lon="4.11885">
        <ele>125.59</ele>
        <time>2016-11-06T09:51:02Z</time>
      </trkpt>
      <trkpt lat="50.50997" lon="4.11898">
        <ele>125.59</ele>
        <time>2016-11-06T09:51:15Z</time>
      </trkpt>
      <trkpt lat="50.50977" lon="4.11909">
        <ele>126.07</ele>
        <time>2016-11-06T09:51:30Z</time>
      </trkpt>
      <trkpt lat="50.50975" lon="4.11911">
        <ele>126.07</ele>
        <time>2016-11-06T09:51:32Z</time>
      </trkpt>
      <trkpt lat="50.50974" lon="4.1191">
        <ele>126.07</ele>
        <time>2016-11-06T09:51:33Z</time>
      </trkpt>
      <trkpt lat="50.50973" lon="4.11909">
        <ele>126.07</ele>
        <time>2016-11-06T09:51:34Z</time>
      </trkpt>
      <trkpt lat="50.50971" lon="4.11908">
        <ele>126.07</ele>
        <time>2016-11-06T09:51:35Z</time>
      </trkpt>
      <trkpt lat="50.5097" lon="4.11908">
        <ele>126.07</ele>
        <time>2016-11-06T09:51:36Z</time>
      </trkpt>
      <trkpt lat="50.50968" lon="4.11907">
        <ele>126.07</ele>
        <time>2016-11-06T09:51:37Z</time>
      </trkpt>
      <trkpt lat="50.50967" lon="4.11907">
        <ele>126.07</ele>
        <time>2016-11-06T09:51:38Z</time>
      </trkpt>
      <trkpt lat="50.50965" lon="4.11908">
        <ele>126.07</ele>
        <time>2016-11-06T09:51:39Z</time>
      </trkpt>
      <trkpt lat="50.50964" lon="4.11908">
        <ele>126.07</ele>
        <time>2016-11-06T09:51:40Z</time>
      </trkpt>
      <trkpt lat="50.50963" lon="4.11909">
        <ele>126.07</ele>
        <time>2016-11-06T09:51:41Z</time>
      </trkpt>
      <trkpt lat="50.50944" lon="4.11928">
        <ele>126.07</ele>
        <time>2016-11-06T09:51:56Z</time>
      </trkpt>
      <trkpt lat="50.50942" lon="4.11929">
        <ele>126.07</ele>
        <time>2016-11-06T09:51:58Z</time>
      </trkpt>
      <trkpt lat="50.50941" lon="4.11929">
        <ele>126.07</ele>
        <time>2016-11-06T09:51:59Z</time>
      </trkpt>
      <trkpt lat="50.5094" lon="4.11929">
        <ele>126.07</ele>
        <time>2016-11-06T09:52:00Z</time>
      </trkpt>
      <trkpt lat="50.50924" lon="4.11919">
        <ele>126.55</ele>
        <time>2016-11-06T09:52:12Z</time>
      </trkpt>
      <trkpt lat="50.50913" lon="4.11905">
        <ele>126.55</ele>
        <time>2016-11-06T09:52:23Z</time>
      </trkpt>
      <trkpt lat="50.50899" lon="4.11887">
        <ele>127.51</ele>
        <time>2016-11-06T09:52:37Z</time>
      </trkpt>
      <trkpt lat="50.50898" lon="4.11885">
        <ele>127.51</ele>
        <time>2016-11-06T09:52:38Z</time>
      </trkpt>
      <trkpt lat="50.50897" lon="4.11884">
        <ele>127.51</ele>
        <time>2016-11-06T09:52:39Z</time>
      </trkpt>
      <trkpt lat="50.50879" lon="4.11865">
        <ele>127.51</ele>
        <time>2016-11-06T09:52:54Z</time>
      </trkpt>
      <trkpt lat="50.50862" lon="4.11849">
        <ele>128.47</ele>
        <time>2016-11-06T09:53:08Z</time>
      </trkpt>
      <trkpt lat="50.50857" lon="4.11848">
        <ele>128.47</ele>
        <time>2016-11-06T09:53:11Z</time>
      </trkpt>
      <trkpt lat="50.50856" lon="4.11847">
        <ele>128.47</ele>
        <time>2016-11-06T09:53:12Z</time>
      </trkpt>
      <trkpt lat="50.50839" lon="4.11827">
        <ele>128.95</ele>
        <time>2016-11-06T09:53:26Z</time>
      </trkpt>
      <trkpt lat="50.50836" lon="4.11827">
        <ele>129.43</ele>
        <time>2016-11-06T09:53:29Z</time>
      </trkpt>
      <trkpt lat="50.50816" lon="4.11806">
        <ele>130.88</ele>
        <time>2016-11-06T09:53:47Z</time>
      </trkpt>
      <trkpt lat="50.50799" lon="4.11788">
        <ele>130.88</ele>
        <time>2016-11-06T09:54:01Z</time>
      </trkpt>
      <trkpt lat="50.50783" lon="4.11773">
        <ele>131.36</ele>
        <time>2016-11-06T09:54:14Z</time>
      </trkpt>
      <trkpt lat="50.50766" lon="4.11751">
        <ele>131.84</ele>
        <time>2016-11-06T09:54:30Z</time>
      </trkpt>
      <trkpt lat="50.50749" lon="4.11733">
        <ele>132.8</ele>
        <time>2016-11-06T09:54:44Z</time>
      </trkpt>
      <trkpt lat="50.50746" lon="4.1173">
        <ele>132.8</ele>
        <time>2016-11-06T09:54:47Z</time>
      </trkpt>
      <trkpt lat="50.50744" lon="4.11729">
        <ele>132.8</ele>
        <time>2016-11-06T09:54:48Z</time>
      </trkpt>
      <trkpt lat="50.50743" lon="4.11728">
        <ele>132.8</ele>
        <time>2016-11-06T09:54:49Z</time>
      </trkpt>
      <trkpt lat="50.50743" lon="4.11727">
        <ele>132.8</ele>
        <time>2016-11-06T09:54:50Z</time>
      </trkpt>
      <trkpt lat="50.50742" lon="4.11726">
        <ele>132.8</ele>
        <time>2016-11-06T09:54:51Z</time>
      </trkpt>
      <trkpt lat="50.50741" lon="4.11725">
        <ele>132.8</ele>
        <time>2016-11-06T09:54:52Z</time>
      </trkpt>
      <trkpt lat="50.5074" lon="4.11724">
        <ele>132.8</ele>
        <time>2016-11-06T09:54:53Z</time>
      </trkpt>
      <trkpt lat="50.50738" lon="4.11722">
        <ele>132.8</ele>
        <time>2016-11-06T09:54:54Z</time>
      </trkpt>
      <trkpt lat="50.50737" lon="4.11721">
        <ele>132.8</ele>
        <time>2016-11-06T09:54:55Z</time>
      </trkpt>
      <trkpt lat="50.50736" lon="4.1172">
        <ele>132.8</ele>
        <time>2016-11-06T09:54:56Z</time>
      </trkpt>
      <trkpt lat="50.50734" lon="4.11718">
        <ele>132.8</ele>
        <time>2016-11-06T09:54:57Z</time>
      </trkpt>
      <trkpt lat="50.50733" lon="4.11717">
        <ele>132.8</ele>
        <time>2016-11-06T09:54:58Z</time>
      </trkpt>
      <trkpt lat="50.50716" lon="4.11696">
        <ele>132.8</ele>
        <time>2016-11-06T09:55:12Z</time>
      </trkpt>
      <trkpt lat="50.50701" lon="4.11679">
        <ele>132.8</ele>
        <time>2016-11-06T09:55:26Z</time>
      </trkpt>
      <trkpt lat="50.50692" lon="4.11672">
        <ele>132.8</ele>
        <time>2016-11-06T09:55:32Z</time>
      </trkpt>
      <trkpt lat="50.50691" lon="4.1167">
        <ele>132.8</ele>
        <time>2016-11-06T09:55:33Z</time>
      </trkpt>
      <trkpt lat="50.5069" lon="4.11669">
        <ele>132.8</ele>
        <time>2016-11-06T09:55:34Z</time>
      </trkpt>
      <trkpt lat="50.50689" lon="4.11667">
        <ele>132.8</ele>
        <time>2016-11-06T09:55:35Z</time>
      </trkpt>
      <trkpt lat="50.50689" lon="4.11665">
        <ele>132.8</ele>
        <time>2016-11-06T09:55:36Z</time>
      </trkpt>
      <trkpt lat="50.50688" lon="4.11664">
        <ele>132.8</ele>
        <time>2016-11-06T09:55:37Z</time>
      </trkpt>
      <trkpt lat="50.50669" lon="4.11642">
        <ele>132.8</ele>
        <time>2016-11-06T09:55:54Z</time>
      </trkpt>
      <trkpt lat="50.50662" lon="4.11622">
        <ele>132.8</ele>
        <time>2016-11-06T09:56:05Z</time>
      </trkpt>
      <trkpt lat="50.50661" lon="4.1162">
        <ele>132.8</ele>
        <time>2016-11-06T09:56:06Z</time>
      </trkpt>
      <trkpt lat="50.5066" lon="4.11619">
        <ele>132.8</ele>
        <time>2016-11-06T09:56:07Z</time>
      </trkpt>
      <trkpt lat="50.5066" lon="4.11617">
        <ele>132.8</ele>
        <time>2016-11-06T09:56:08Z</time>
      </trkpt>
      <trkpt lat="50.50659" lon="4.11615">
        <ele>132.8</ele>
        <time>2016-11-06T09:56:09Z</time>
      </trkpt>
      <trkpt lat="50.50659" lon="4.11613">
        <ele>132.8</ele>
        <time>2016-11-06T09:56:10Z</time>
      </trkpt>
      <trkpt lat="50.50658" lon="4.11611">
        <ele>132.8</ele>
        <time>2016-11-06T09:56:11Z</time>
      </trkpt>
      <trkpt lat="50.50657" lon="4.11609">
        <ele>132.8</ele>
        <time>2016-11-06T09:56:12Z</time>
      </trkpt>
      <trkpt lat="50.50653" lon="4.11601">
        <ele>132.8</ele>
        <time>2016-11-06T09:56:17Z</time>
      </trkpt>
      <trkpt lat="50.5065" lon="4.11597">
        <ele>132.32</ele>
        <time>2016-11-06T09:56:19Z</time>
      </trkpt>
      <trkpt lat="50.5065" lon="4.11595">
        <ele>132.32</ele>
        <time>2016-11-06T09:56:20Z</time>
      </trkpt>
      <trkpt lat="50.50646" lon="4.11578">
        <ele>132.32</ele>
        <time>2016-11-06T09:56:28Z</time>
      </trkpt>
      <trkpt lat="50.50645" lon="4.11576">
        <ele>132.32</ele>
        <time>2016-11-06T09:56:29Z</time>
      </trkpt>
      <trkpt lat="50.50645" lon="4.11574">
        <ele>132.32</ele>
        <time>2016-11-06T09:56:30Z</time>
      </trkpt>
      <trkpt lat="50.50644" lon="4.11572">
        <ele>132.32</ele>
        <time>2016-11-06T09:56:31Z</time>
      </trkpt>
      <trkpt lat="50.50643" lon="4.1157">
        <ele>132.32</ele>
        <time>2016-11-06T09:56:32Z</time>
      </trkpt>
      <trkpt lat="50.50641" lon="4.11563">
        <ele>132.32</ele>
        <time>2016-11-06T09:56:36Z</time>
      </trkpt>
      <trkpt lat="50.50641" lon="4.11561">
        <ele>132.32</ele>
        <time>2016-11-06T09:56:37Z</time>
      </trkpt>
      <trkpt lat="50.50634" lon="4.11541">
        <ele>132.32</ele>
        <time>2016-11-06T09:56:49Z</time>
      </trkpt>
      <trkpt lat="50.50628" lon="4.1151">
        <ele>131.36</ele>
        <time>2016-11-06T09:57:03Z</time>
      </trkpt>
      <trkpt lat="50.50624" lon="4.11506">
        <ele>130.88</ele>
        <time>2016-11-06T09:57:06Z</time>
      </trkpt>
      <trkpt lat="50.50596" lon="4.11503">
        <ele>129.92</ele>
        <time>2016-11-06T09:57:18Z</time>
      </trkpt>
      <trkpt lat="50.50577" lon="4.11495">
        <ele>129.43</ele>
        <time>2016-11-06T09:57:32Z</time>
      </trkpt>
      <trkpt lat="50.50561" lon="4.11491">
        <ele>129.43</ele>
        <time>2016-11-06T09:57:44Z</time>
      </trkpt>
      <trkpt lat="50.50544" lon="4.11485">
        <ele>128.47</ele>
        <time>2016-11-06T09:57:55Z</time>
      </trkpt>
      <trkpt lat="50.50523" lon="4.11483">
        <ele>127.99</ele>
        <time>2016-11-06T09:58:09Z</time>
      </trkpt>
      <trkpt lat="50.50504" lon="4.11475">
        <ele>127.99</ele>
        <time>2016-11-06T09:58:22Z</time>
      </trkpt>
      <trkpt lat="50.50485" lon="4.11468">
        <ele>127.51</ele>
        <time>2016-11-06T09:58:37Z</time>
      </trkpt>
      <trkpt lat="50.50468" lon="4.11459">
        <ele>126.55</ele>
        <time>2016-11-06T09:58:49Z</time>
      </trkpt>
      <trkpt lat="50.50449" lon="4.11449">
        <ele>125.59</ele>
        <time>2016-11-06T09:59:04Z</time>
      </trkpt>
      <trkpt lat="50.50432" lon="4.11443">
        <ele>125.11</ele>
        <time>2016-11-06T09:59:16Z</time>
      </trkpt>
      <trkpt lat="50.50428" lon="4.11437">
        <ele>125.11</ele>
        <time>2016-11-06T09:59:21Z</time>
      </trkpt>
      <trkpt lat="50.50416" lon="4.11432">
        <ele>124.15</ele>
        <time>2016-11-06T09:59:34Z</time>
      </trkpt>
      <trkpt lat="50.50402" lon="4.11418">
        <ele>123.67</ele>
        <time>2016-11-06T09:59:45Z</time>
      </trkpt>
      <trkpt lat="50.50403" lon="4.11414">
        <ele>123.19</ele>
        <time>2016-11-06T09:59:47Z</time>
      </trkpt>
      <trkpt lat="50.50402" lon="4.11404">
        <ele>122.71</ele>
        <time>2016-11-06T09:59:51Z</time>
      </trkpt>
      <trkpt lat="50.504" lon="4.11372">
        <ele>122.71</ele>
        <time>2016-11-06T10:00:03Z</time>
      </trkpt>
      <trkpt lat="50.50393" lon="4.11348">
        <ele>122.22</ele>
        <time>2016-11-06T10:00:15Z</time>
      </trkpt>
      <trkpt lat="50.50386" lon="4.11323">
        <ele>122.22</ele>
        <time>2016-11-06T10:00:28Z</time>
      </trkpt>
      <trkpt lat="50.50386" lon="4.11305">
        <ele>122.22</ele>
        <time>2016-11-06T10:00:40Z</time>
      </trkpt>
      <trkpt lat="50.50385" lon="4.11297">
        <ele>122.22</ele>
        <time>2016-11-06T10:00:44Z</time>
      </trkpt>
      <trkpt lat="50.5038" lon="4.11283">
        <ele>122.22</ele>
        <time>2016-11-06T10:00:50Z</time>
      </trkpt>
      <trkpt lat="50.50379" lon="4.11263">
        <ele>124.63</ele>
        <time>2016-11-06T10:01:00Z</time>
      </trkpt>
      <trkpt lat="50.50377" lon="4.11254">
        <ele>125.11</ele>
        <time>2016-11-06T10:01:05Z</time>
      </trkpt>
      <trkpt lat="50.50369" lon="4.11234">
        <ele>125.59</ele>
        <time>2016-11-06T10:01:17Z</time>
      </trkpt>
      <trkpt lat="50.50368" lon="4.11232">
        <ele>125.59</ele>
        <time>2016-11-06T10:01:18Z</time>
      </trkpt>
      <trkpt lat="50.50362" lon="4.1122">
        <ele>126.07</ele>
        <time>2016-11-06T10:01:26Z</time>
      </trkpt>
      <trkpt lat="50.5036" lon="4.11214">
        <ele>126.07</ele>
        <time>2016-11-06T10:01:29Z</time>
      </trkpt>
      <trkpt lat="50.50357" lon="4.11196">
        <ele>127.03</ele>
        <time>2016-11-06T10:01:42Z</time>
      </trkpt>
      <trkpt lat="50.50357" lon="4.11196">
        <ele>127.03</ele>
        <time>2016-11-06T10:01:43Z</time>
      </trkpt>
      <trkpt lat="50.50354" lon="4.11187">
        <ele>127.03</ele>
        <time>2016-11-06T10:01:48Z</time>
      </trkpt>
      <trkpt lat="50.50349" lon="4.11171">
        <ele>127.51</ele>
        <time>2016-11-06T10:01:58Z</time>
      </trkpt>
      <trkpt lat="50.5035" lon="4.11165">
        <ele>127.51</ele>
        <time>2016-11-06T10:02:02Z</time>
      </trkpt>
      <trkpt lat="50.50356" lon="4.11158">
        <ele>127.51</ele>
        <time>2016-11-06T10:02:08Z</time>
      </trkpt>
      <trkpt lat="50.50359" lon="4.11154">
        <ele>127.51</ele>
        <time>2016-11-06T10:02:12Z</time>
      </trkpt>
      <trkpt lat="50.50368" lon="4.11142">
        <ele>127.51</ele>
        <time>2016-11-06T10:02:23Z</time>
      </trkpt>
      <trkpt lat="50.50376" lon="4.11148">
        <ele>127.51</ele>
        <time>2016-11-06T10:02:31Z</time>
      </trkpt>
      <trkpt lat="50.50388" lon="4.11152">
        <ele>127.51</ele>
        <time>2016-11-06T10:02:42Z</time>
      </trkpt>
      <trkpt lat="50.50391" lon="4.11149">
        <ele>127.99</ele>
        <time>2016-11-06T10:02:54Z</time>
      </trkpt>
      <trkpt lat="50.50393" lon="4.11152">
        <ele>127.51</ele>
        <time>2016-11-06T10:03:08Z</time>
      </trkpt>
      <trkpt lat="50.50408" lon="4.11137">
        <ele>127.99</ele>
        <time>2016-11-06T10:03:30Z</time>
      </trkpt>
      <trkpt lat="50.50413" lon="4.11136">
        <ele>127.51</ele>
        <time>2016-11-06T10:03:55Z</time>
      </trkpt>
      <trkpt lat="50.50416" lon="4.1113">
        <ele>127.51</ele>
        <time>2016-11-06T10:04:12Z</time>
      </trkpt>
      <trkpt lat="50.50418" lon="4.11126">
        <ele>127.51</ele>
        <time>2016-11-06T10:04:40Z</time>
      </trkpt>
      <trkpt lat="50.50421" lon="4.11131">
        <ele>127.51</ele>
        <time>2016-11-06T10:05:04Z</time>
      </trkpt>
      <trkpt lat="50.50423" lon="4.11126">
        <ele>128.47</ele>
        <time>2016-11-06T10:05:24Z</time>
      </trkpt>
      <trkpt lat="50.50422" lon="4.11127">
        <ele>128.47</ele>
        <time>2016-11-06T10:05:49Z</time>
      </trkpt>
    </trkseg>
  </trk>
</gpx>